BAW16 YSSY-WSSS
Flight info
| Callsign | BAW16 |
|---|---|
| Flight time | N/A |
| Altitude | 36000 |
| Route | KADOM A576 PKS G222 BIGUP/N0489F380 G222 SAPDA A585 PLB G579 SJ |
| Aircraft | B77W/H-SDE1E2E3FGHIJ2J3J4J5M1RWXY/LB1D1 |
Departure
| Time | 2026-05-04 23:19 |
|---|---|
| Airport | Sydney Kingsford Smith International Airport (YSSY) |
Arrival
| Time | N/A |
|---|---|
| Airport | Singapore Changi Airport (WSSS) |
| Time | Latitude | Longitude | Altitude | Speed | Heading |
|---|---|---|---|---|---|
| 2026-05-04 22:25 | -33.93979 | 151.16679 | 31 ft | 0 kts | 303° |
| 2026-05-04 23:07 | -33.93981 | 151.16684 | 31 ft | 2 kts | 303° |
| 2026-05-04 23:07 | -33.93990 | 151.16699 | 31 ft | 2 kts | 303° |
| 2026-05-04 23:07 | -33.93996 | 151.16711 | 31 ft | 2 kts | 303° |
| 2026-05-04 23:07 | -33.94004 | 151.16725 | 31 ft | 2 kts | 313° |
| 2026-05-04 23:08 | -33.94016 | 151.16736 | 31 ft | 2 kts | 333° |
| 2026-05-04 23:08 | -33.94029 | 151.16742 | 31 ft | 2 kts | 347° |
| 2026-05-04 23:08 | -33.94043 | 151.16745 | 31 ft | 2 kts | 2° |
| 2026-05-04 23:08 | -33.94058 | 151.16742 | 31 ft | 2 kts | 18° |
| 2026-05-04 23:09 | -33.94071 | 151.16734 | 31 ft | 2 kts | 33° |
| 2026-05-04 23:09 | -33.94082 | 151.16724 | 31 ft | 2 kts | 49° |
| 2026-05-04 23:09 | -33.94090 | 151.16710 | 31 ft | 2 kts | 64° |
| 2026-05-04 23:09 | -33.94094 | 151.16698 | 31 ft | 0 kts | 73° |
| 2026-05-04 23:11 | -33.94094 | 151.16699 | 31 ft | 0 kts | 73° |
| 2026-05-04 23:11 | -33.94087 | 151.16728 | 31 ft | 7 kts | 74° |
| 2026-05-04 23:11 | -33.94068 | 151.16812 | 31 ft | 14 kts | 75° |
| 2026-05-04 23:12 | -33.94038 | 151.16946 | 31 ft | 21 kts | 73° |
| 2026-05-04 23:12 | -33.94004 | 151.17084 | 31 ft | 13 kts | 73° |
| 2026-05-04 23:12 | -33.93990 | 151.17169 | 31 ft | 10 kts | 97° |
| 2026-05-04 23:12 | -33.94042 | 151.17235 | 31 ft | 13 kts | 156° |
| 2026-05-04 23:13 | -33.94151 | 151.17271 | 31 ft | 19 kts | 168° |
| 2026-05-04 23:13 | -33.94288 | 151.17305 | 31 ft | 18 kts | 168° |
| 2026-05-04 23:13 | -33.94421 | 151.17340 | 31 ft | 21 kts | 167° |
| 2026-05-04 23:13 | -33.94616 | 151.17390 | 31 ft | 32 kts | 168° |
| 2026-05-04 23:14 | -33.94842 | 151.17447 | 31 ft | 30 kts | 168° |
| 2026-05-04 23:14 | -33.95033 | 151.17499 | 31 ft | 28 kts | 167° |
| 2026-05-04 23:14 | -33.95217 | 151.17546 | 31 ft | 25 kts | 168° |
| 2026-05-04 23:14 | -33.95409 | 151.17596 | 31 ft | 30 kts | 168° |
| 2026-05-04 23:15 | -33.95618 | 151.17651 | 31 ft | 29 kts | 168° |
| 2026-05-04 23:15 | -33.95816 | 151.17702 | 31 ft | 28 kts | 168° |
| 2026-05-04 23:15 | -33.96019 | 151.17754 | 31 ft | 28 kts | 167° |
| 2026-05-04 23:15 | -33.96205 | 151.17804 | 31 ft | 24 kts | 167° |
| 2026-05-04 23:16 | -33.96333 | 151.17836 | 31 ft | 15 kts | 168° |
| 2026-05-04 23:16 | -33.96414 | 151.17876 | 31 ft | 10 kts | 137° |
| 2026-05-04 23:16 | -33.96433 | 151.17949 | 31 ft | 9 kts | 88° |
| 2026-05-04 23:16 | -33.96422 | 151.18016 | 31 ft | 5 kts | 64° |
| 2026-05-04 23:17 | -33.96393 | 151.18042 | 31 ft | 6 kts | 15° |
| 2026-05-04 23:17 | -33.96355 | 151.18043 | 31 ft | 6 kts | 355° |
| 2026-05-04 23:17 | -33.96343 | 151.18042 | 31 ft | 0 kts | 351° |
| 2026-05-04 23:17 | -33.96318 | 151.18036 | 31 ft | 18 kts | 349° |
| 2026-05-04 23:18 | -33.96013 | 151.17956 | 31 ft | 82 kts | 348° |
| 2026-05-04 23:18 | -33.95335 | 151.17781 | 32 ft | 139 kts | 348° |
| 2026-05-04 23:18 | -33.94340 | 151.17529 | 83 ft | 182 kts | 348° |
| 2026-05-04 23:18 | -33.93224 | 151.17278 | 528 ft | 193 kts | 347° |
| 2026-05-04 23:19 | -33.92099 | 151.16992 | 1226 ft | 196 kts | 340° |
| 2026-05-04 23:19 | -33.91008 | 151.16399 | 1734 ft | 199 kts | 324° |
| 2026-05-04 23:19 | -33.90049 | 151.15479 | 2151 ft | 206 kts | 308° |
| 2026-05-04 23:19 | -33.89267 | 151.14163 | 2499 ft | 222 kts | 300° |
| 2026-05-04 23:20 | -33.88518 | 151.12766 | 2912 ft | 238 kts | 300° |
| 2026-05-04 23:20 | -33.87766 | 151.11360 | 3439 ft | 247 kts | 300° |
| 2026-05-04 23:20 | -33.86974 | 151.09880 | 4098 ft | 252 kts | 300° |
| 2026-05-04 23:20 | -33.86108 | 151.08266 | 4882 ft | 253 kts | 301° |
| 2026-05-04 23:21 | -33.85266 | 151.06696 | 5582 ft | 256 kts | 301° |
| 2026-05-04 23:21 | -33.84388 | 151.05060 | 6303 ft | 259 kts | 302° |
| 2026-05-04 23:21 | -33.83500 | 151.03407 | 6990 ft | 263 kts | 302° |
| 2026-05-04 23:21 | -33.82690 | 151.01660 | 7795 ft | 260 kts | 289° |
| 2026-05-04 23:22 | -33.82296 | 150.99724 | 8519 ft | 262 kts | 282° |
| 2026-05-04 23:22 | -33.81987 | 150.97792 | 9259 ft | 262 kts | 281° |
| 2026-05-04 23:22 | -33.81668 | 150.95776 | 9938 ft | 264 kts | 281° |
| 2026-05-04 23:22 | -33.81341 | 150.93704 | 10552 ft | 270 kts | 281° |
| 2026-05-04 23:23 | -33.80982 | 150.91438 | 10956 ft | 286 kts | 281° |
| 2026-05-04 23:23 | -33.80612 | 150.89111 | 11356 ft | 302 kts | 281° |
| 2026-05-04 23:23 | -33.80227 | 150.86688 | 11805 ft | 316 kts | 281° |
| 2026-05-04 23:23 | -33.79816 | 150.84102 | 12257 ft | 331 kts | 281° |
| 2026-05-04 23:24 | -33.79388 | 150.81415 | 12743 ft | 345 kts | 281° |
| 2026-05-04 23:24 | -33.78932 | 150.78557 | 13217 ft | 359 kts | 281° |
| 2026-05-04 23:24 | -33.78462 | 150.75612 | 13944 ft | 367 kts | 281° |
| 2026-05-04 23:24 | -33.77980 | 150.72594 | 14789 ft | 372 kts | 281° |
| 2026-05-04 23:25 | -33.77491 | 150.69542 | 15701 ft | 376 kts | 281° |
| 2026-05-04 23:25 | -33.76994 | 150.66441 | 16644 ft | 378 kts | 282° |
| 2026-05-04 23:25 | -33.76491 | 150.63313 | 17478 ft | 382 kts | 282° |
| 2026-05-04 23:25 | -33.75979 | 150.60130 | 18238 ft | 388 kts | 282° |
| 2026-05-04 23:26 | -33.75463 | 150.56929 | 19064 ft | 392 kts | 282° |
| 2026-05-04 23:26 | -33.74943 | 150.53708 | 19906 ft | 395 kts | 282° |
| 2026-05-04 23:26 | -33.74423 | 150.50493 | 20633 ft | 400 kts | 282° |
| 2026-05-04 23:26 | -33.73891 | 150.47215 | 21370 ft | 404 kts | 282° |
| 2026-05-04 23:27 | -33.73347 | 150.43864 | 22129 ft | 408 kts | 282° |
| 2026-05-04 23:27 | -33.72808 | 150.40546 | 22863 ft | 411 kts | 282° |
| 2026-05-04 23:27 | -33.72257 | 150.37167 | 23536 ft | 415 kts | 282° |
| 2026-05-04 23:27 | -33.71696 | 150.33730 | 24200 ft | 420 kts | 283° |
| 2026-05-04 23:28 | -33.71100 | 150.30257 | 24921 ft | 421 kts | 285° |
| 2026-05-04 23:28 | -33.70253 | 150.26892 | 25664 ft | 422 kts | 289° |
| 2026-05-04 23:28 | -33.69336 | 150.23509 | 26321 ft | 426 kts | 289° |
| 2026-05-04 23:28 | -33.68415 | 150.20123 | 26925 ft | 430 kts | 289° |
| 2026-05-04 23:29 | -33.67488 | 150.16721 | 27568 ft | 433 kts | 289° |
| 2026-05-04 23:29 | -33.66526 | 150.13190 | 28180 ft | 436 kts | 289° |
| 2026-05-04 23:29 | -33.65583 | 150.09737 | 28773 ft | 440 kts | 289° |
| 2026-05-04 23:29 | -33.64624 | 150.06226 | 29385 ft | 442 kts | 289° |
| 2026-05-04 23:30 | -33.63670 | 150.02734 | 30119 ft | 441 kts | 289° |
| 2026-05-04 23:30 | -33.62729 | 149.99298 | 30972 ft | 436 kts | 289° |
| 2026-05-04 23:30 | -33.61799 | 149.95903 | 31875 ft | 428 kts | 289° |
| 2026-05-04 23:30 | -33.60872 | 149.92523 | 32740 ft | 421 kts | 289° |
| 2026-05-04 23:31 | -33.59969 | 149.89233 | 33418 ft | 418 kts | 290° |
| 2026-05-04 23:31 | -33.59068 | 149.85960 | 33971 ft | 415 kts | 290° |
| 2026-05-04 23:31 | -33.58171 | 149.82703 | 34421 ft | 414 kts | 289° |
| 2026-05-04 23:31 | -33.57261 | 149.79401 | 34828 ft | 415 kts | 289° |
| 2026-05-04 23:32 | -33.56356 | 149.76126 | 35200 ft | 415 kts | 289° |
| 2026-05-04 23:32 | -33.55447 | 149.72838 | 35577 ft | 415 kts | 289° |
| 2026-05-04 23:32 | -33.54546 | 149.69579 | 36030 ft | 415 kts | 289° |
| 2026-05-04 23:32 | -33.53635 | 149.66292 | 36154 ft | 418 kts | 289° |
| 2026-05-04 23:33 | -33.51807 | 149.59701 | 36155 ft | 412 kts | 289° |
| 2026-05-04 23:33 | -33.49987 | 149.53159 | 36155 ft | 415 kts | 289° |
| 2026-05-04 23:34 | -33.48161 | 149.46605 | 36153 ft | 414 kts | 289° |
| 2026-05-04 23:34 | -33.46325 | 149.40031 | 36154 ft | 414 kts | 289° |
| 2026-05-04 23:35 | -33.44501 | 149.33519 | 36162 ft | 416 kts | 290° |
| 2026-05-04 23:35 | -33.42693 | 149.27080 | 36168 ft | 414 kts | 290° |
| 2026-05-04 23:36 | -33.40854 | 149.20541 | 36164 ft | 416 kts | 290° |
| 2026-05-04 23:36 | -33.39001 | 149.13968 | 36165 ft | 414 kts | 290° |
| 2026-05-04 23:37 | -33.37166 | 149.07474 | 36167 ft | 414 kts | 290° |
| 2026-05-04 23:37 | -33.35315 | 149.00940 | 36166 ft | 416 kts | 290° |
| 2026-05-04 23:38 | -33.33454 | 148.94386 | 36166 ft | 416 kts | 290° |
| 2026-05-04 23:38 | -33.31596 | 148.87856 | 36161 ft | 417 kts | 290° |
| 2026-05-04 23:39 | -33.29727 | 148.81300 | 36162 ft | 415 kts | 290° |
| 2026-05-04 23:39 | -33.27855 | 148.74748 | 36165 ft | 416 kts | 290° |
| 2026-05-04 23:40 | -33.25983 | 148.68213 | 36157 ft | 416 kts | 290° |
| 2026-05-04 23:40 | -33.24097 | 148.61647 | 36166 ft | 417 kts | 290° |
| 2026-05-04 23:41 | -33.22214 | 148.55101 | 36166 ft | 417 kts | 290° |
| 2026-05-04 23:41 | -33.20325 | 148.48550 | 36164 ft | 416 kts | 290° |
| 2026-05-04 23:42 | -33.18445 | 148.42047 | 36177 ft | 418 kts | 290° |
| 2026-05-04 23:42 | -33.16544 | 148.35487 | 36159 ft | 418 kts | 290° |
| 2026-05-04 23:43 | -33.14637 | 148.28915 | 36171 ft | 418 kts | 290° |
| 2026-05-04 23:43 | -33.12631 | 148.22363 | 36185 ft | 418 kts | 294° |
| 2026-05-04 23:44 | -33.10318 | 148.15973 | 36168 ft | 418 kts | 294° |
| 2026-05-04 23:44 | -33.08006 | 148.09618 | 36181 ft | 418 kts | 294° |
| 2026-05-04 23:45 | -33.05693 | 148.03268 | 36166 ft | 419 kts | 294° |
| 2026-05-04 23:45 | -33.03361 | 147.96878 | 36164 ft | 418 kts | 294° |
| 2026-05-04 23:46 | -33.01040 | 147.90529 | 36177 ft | 420 kts | 294° |
| 2026-05-04 23:46 | -32.98716 | 147.84184 | 36169 ft | 419 kts | 294° |
| 2026-05-04 23:47 | -32.96378 | 147.77814 | 36167 ft | 420 kts | 294° |
| 2026-05-04 23:47 | -32.94040 | 147.71455 | 36167 ft | 420 kts | 294° |
| 2026-05-04 23:48 | -32.91705 | 147.65115 | 36167 ft | 420 kts | 294° |
| 2026-05-04 23:48 | -32.89342 | 147.58714 | 36172 ft | 423 kts | 294° |
| 2026-05-04 23:49 | -32.86977 | 147.52319 | 36174 ft | 422 kts | 294° |
| 2026-05-04 23:49 | -32.84621 | 147.45961 | 36172 ft | 422 kts | 294° |
| 2026-05-04 23:50 | -32.82241 | 147.39548 | 36170 ft | 423 kts | 294° |
| 2026-05-04 23:50 | -32.79863 | 147.33153 | 36182 ft | 422 kts | 294° |
| 2026-05-04 23:51 | -32.77492 | 147.26790 | 36182 ft | 421 kts | 294° |
| 2026-05-04 23:51 | -32.75124 | 147.20447 | 36181 ft | 423 kts | 294° |
| 2026-05-04 23:52 | -32.72733 | 147.14053 | 36181 ft | 423 kts | 294° |
| 2026-05-04 23:52 | -32.70336 | 147.07657 | 36179 ft | 424 kts | 294° |
| 2026-05-04 23:53 | -32.67954 | 147.01312 | 36179 ft | 422 kts | 295° |
| 2026-05-04 23:53 | -32.65562 | 146.94954 | 36180 ft | 424 kts | 294° |
| 2026-05-04 23:54 | -32.63161 | 146.88582 | 36180 ft | 424 kts | 294° |
| 2026-05-04 23:54 | -32.60753 | 146.82202 | 36180 ft | 423 kts | 294° |
| 2026-05-04 23:55 | -32.58349 | 146.75847 | 36178 ft | 425 kts | 294° |
| 2026-05-04 23:56 | -32.54720 | 146.66277 | 36178 ft | 425 kts | 294° |
| 2026-05-04 23:56 | -32.52300 | 146.59911 | 36176 ft | 425 kts | 294° |
| 2026-05-04 23:57 | -32.49880 | 146.53552 | 36172 ft | 424 kts | 294° |
| 2026-05-04 23:57 | -32.47445 | 146.47171 | 36163 ft | 424 kts | 294° |
| 2026-05-04 23:58 | -32.45019 | 146.40820 | 36172 ft | 426 kts | 294° |
| 2026-05-04 23:58 | -32.42585 | 146.34464 | 36174 ft | 424 kts | 295° |
| 2026-05-04 23:59 | -32.40144 | 146.28101 | 36183 ft | 425 kts | 295° |
| 2026-05-04 23:59 | -32.37701 | 146.21744 | 36182 ft | 426 kts | 295° |
| 2026-05-05 00:00 | -32.35247 | 146.15367 | 36171 ft | 426 kts | 295° |
| 2026-05-05 00:00 | -32.32778 | 146.08969 | 36164 ft | 426 kts | 295° |
| 2026-05-05 00:01 | -32.30322 | 146.02611 | 36178 ft | 426 kts | 295° |
| 2026-05-05 00:01 | -32.27856 | 145.96242 | 36175 ft | 425 kts | 295° |
| 2026-05-05 00:02 | -32.25403 | 145.89917 | 36169 ft | 427 kts | 295° |
| 2026-05-05 00:02 | -32.22916 | 145.83516 | 36169 ft | 426 kts | 295° |
| 2026-05-05 00:03 | -32.20461 | 145.77211 | 36193 ft | 428 kts | 295° |
| 2026-05-05 00:03 | -32.17986 | 145.70862 | 36180 ft | 427 kts | 295° |
| 2026-05-05 00:04 | -32.15486 | 145.64464 | 36184 ft | 427 kts | 295° |
| 2026-05-05 00:04 | -32.12980 | 145.58063 | 36167 ft | 427 kts | 295° |
| 2026-05-05 00:05 | -32.10498 | 145.51732 | 36179 ft | 429 kts | 295° |
| 2026-05-05 00:05 | -32.07992 | 145.45354 | 36174 ft | 427 kts | 295° |
| 2026-05-05 00:06 | -32.05496 | 145.39011 | 36183 ft | 429 kts | 295° |
| 2026-05-05 00:06 | -32.02967 | 145.32596 | 36191 ft | 429 kts | 295° |
| 2026-05-05 00:07 | -32.00420 | 145.26157 | 36187 ft | 429 kts | 295° |
| 2026-05-05 00:07 | -31.97897 | 145.19794 | 36196 ft | 428 kts | 296° |
| 2026-05-05 00:08 | -31.95369 | 145.13431 | 36194 ft | 428 kts | 295° |
| 2026-05-05 00:08 | -31.92835 | 145.07063 | 36194 ft | 429 kts | 295° |
| 2026-05-05 00:09 | -31.90316 | 145.00743 | 36196 ft | 430 kts | 295° |
| 2026-05-05 00:09 | -31.87748 | 144.94313 | 36197 ft | 429 kts | 295° |
| 2026-05-05 00:10 | -31.85210 | 144.87970 | 36206 ft | 430 kts | 295° |
| 2026-05-05 00:10 | -31.82666 | 144.81622 | 36187 ft | 429 kts | 295° |
| 2026-05-05 00:11 | -31.80108 | 144.75250 | 36194 ft | 431 kts | 295° |
| 2026-05-05 00:11 | -31.77543 | 144.68875 | 36192 ft | 429 kts | 295° |
| 2026-05-05 00:12 | -31.75000 | 144.62563 | 36193 ft | 430 kts | 295° |
| 2026-05-05 00:12 | -31.72439 | 144.56218 | 36180 ft | 430 kts | 295° |
| 2026-05-05 00:13 | -31.69860 | 144.49841 | 36195 ft | 431 kts | 295° |
| 2026-05-05 00:13 | -31.67302 | 144.43527 | 36176 ft | 430 kts | 295° |
| 2026-05-05 00:14 | -31.64714 | 144.37149 | 36191 ft | 432 kts | 295° |
| 2026-05-05 00:14 | -31.62127 | 144.30785 | 36201 ft | 431 kts | 296° |
| 2026-05-05 00:15 | -31.59550 | 144.24460 | 36198 ft | 432 kts | 296° |
| 2026-05-05 00:15 | -31.56950 | 144.18086 | 36201 ft | 433 kts | 296° |
| 2026-05-05 00:16 | -31.54352 | 144.11728 | 36207 ft | 431 kts | 296° |
| 2026-05-05 00:16 | -31.51755 | 144.05386 | 36193 ft | 433 kts | 296° |
| 2026-05-05 00:17 | -31.49154 | 143.99045 | 36196 ft | 434 kts | 296° |
| 2026-05-05 00:17 | -31.46535 | 143.92671 | 36194 ft | 434 kts | 296° |
| 2026-05-05 00:18 | -31.43902 | 143.86273 | 36194 ft | 434 kts | 296° |
| 2026-05-05 00:18 | -31.41295 | 143.79952 | 36204 ft | 434 kts | 296° |
| 2026-05-05 00:19 | -31.38668 | 143.73590 | 36206 ft | 433 kts | 296° |
| 2026-05-05 00:19 | -31.36043 | 143.67247 | 36204 ft | 434 kts | 296° |
| 2026-05-05 00:20 | -31.33416 | 143.60908 | 36198 ft | 434 kts | 296° |
| 2026-05-05 00:20 | -31.30772 | 143.54542 | 36202 ft | 434 kts | 296° |
| 2026-05-05 00:21 | -31.28126 | 143.48180 | 36203 ft | 435 kts | 296° |
| 2026-05-05 00:21 | -31.25478 | 143.41826 | 36200 ft | 434 kts | 295° |
| 2026-05-05 00:22 | -31.22816 | 143.35448 | 36204 ft | 435 kts | 296° |
| 2026-05-05 00:22 | -31.20163 | 143.29102 | 36215 ft | 434 kts | 296° |
| 2026-05-05 00:23 | -31.17484 | 143.22707 | 36214 ft | 435 kts | 296° |
| 2026-05-05 00:23 | -31.14818 | 143.16353 | 36218 ft | 434 kts | 296° |
| 2026-05-05 00:24 | -31.12173 | 143.10060 | 36211 ft | 435 kts | 296° |
| 2026-05-05 00:24 | -31.09499 | 143.03708 | 36213 ft | 435 kts | 296° |
| 2026-05-05 00:25 | -31.06814 | 142.97343 | 36213 ft | 436 kts | 296° |
| 2026-05-05 00:25 | -31.04130 | 142.90990 | 36214 ft | 436 kts | 296° |
| 2026-05-05 00:26 | -31.01457 | 142.84674 | 36214 ft | 437 kts | 296° |
| 2026-05-05 00:26 | -30.98763 | 142.78320 | 36212 ft | 437 kts | 296° |
| 2026-05-05 00:27 | -30.96069 | 142.71976 | 36212 ft | 436 kts | 296° |
| 2026-05-05 00:27 | -30.93387 | 142.65675 | 36209 ft | 436 kts | 296° |
| 2026-05-05 00:28 | -30.90683 | 142.59329 | 36204 ft | 436 kts | 296° |
| 2026-05-05 00:28 | -30.87989 | 142.53020 | 36213 ft | 436 kts | 296° |
| 2026-05-05 00:29 | -30.85269 | 142.46658 | 36218 ft | 437 kts | 296° |
| 2026-05-05 00:29 | -30.82572 | 142.40364 | 36214 ft | 437 kts | 296° |
| 2026-05-05 00:30 | -30.79829 | 142.33971 | 36215 ft | 437 kts | 296° |
| 2026-05-05 00:30 | -30.77206 | 142.27869 | 36216 ft | 437 kts | 296° |
| 2026-05-05 00:31 | -30.74487 | 142.21555 | 36220 ft | 437 kts | 296° |
| 2026-05-05 00:31 | -30.71746 | 142.15199 | 36217 ft | 438 kts | 296° |
| 2026-05-05 00:32 | -30.69011 | 142.08868 | 36214 ft | 438 kts | 296° |
| 2026-05-05 00:32 | -30.66287 | 142.02573 | 36220 ft | 438 kts | 296° |
| 2026-05-05 00:33 | -30.63549 | 141.96258 | 36213 ft | 438 kts | 296° |
| 2026-05-05 00:33 | -30.60791 | 141.89906 | 36213 ft | 440 kts | 296° |
| 2026-05-05 00:34 | -30.58048 | 141.83600 | 36211 ft | 439 kts | 296° |
| 2026-05-05 00:34 | -30.55271 | 141.77226 | 36209 ft | 439 kts | 296° |
| 2026-05-05 00:35 | -30.52515 | 141.70909 | 36210 ft | 439 kts | 296° |
| 2026-05-05 00:35 | -30.49757 | 141.64601 | 36207 ft | 441 kts | 296° |
| 2026-05-05 00:36 | -30.46982 | 141.58263 | 36210 ft | 440 kts | 296° |
| 2026-05-05 00:36 | -30.44204 | 141.51930 | 36206 ft | 440 kts | 296° |
| 2026-05-05 00:37 | -30.41418 | 141.45587 | 36205 ft | 439 kts | 296° |
| 2026-05-05 00:37 | -30.38649 | 141.39296 | 36206 ft | 442 kts | 296° |
| 2026-05-05 00:38 | -30.35847 | 141.32939 | 36218 ft | 441 kts | 297° |
| 2026-05-05 00:38 | -30.33036 | 141.26572 | 36216 ft | 441 kts | 297° |
| 2026-05-05 00:39 | -30.30221 | 141.20209 | 36213 ft | 441 kts | 297° |
| 2026-05-05 00:39 | -30.27426 | 141.13899 | 36214 ft | 442 kts | 296° |
| 2026-05-05 00:40 | -30.24624 | 141.07585 | 36218 ft | 441 kts | 297° |
| 2026-05-05 00:40 | -30.21823 | 141.01283 | 36218 ft | 443 kts | 296° |
| 2026-05-05 00:41 | -30.19003 | 140.94951 | 36214 ft | 441 kts | 297° |
| 2026-05-05 00:41 | -30.16173 | 140.88605 | 36217 ft | 442 kts | 296° |
| 2026-05-05 00:42 | -30.13342 | 140.82268 | 36221 ft | 443 kts | 296° |
| 2026-05-05 00:42 | -30.10512 | 140.75946 | 36216 ft | 442 kts | 297° |
| 2026-05-05 00:43 | -30.07703 | 140.69679 | 36221 ft | 443 kts | 296° |
| 2026-05-05 00:43 | -30.04866 | 140.63359 | 36217 ft | 442 kts | 297° |
| 2026-05-05 00:44 | -30.02026 | 140.57045 | 36213 ft | 442 kts | 296° |
| 2026-05-05 00:44 | -29.99185 | 140.50738 | 36213 ft | 443 kts | 297° |
| 2026-05-05 00:45 | -29.96347 | 140.44447 | 36216 ft | 443 kts | 296° |
| 2026-05-05 00:45 | -29.93488 | 140.38121 | 36210 ft | 443 kts | 296° |
| 2026-05-05 00:46 | -29.90618 | 140.31779 | 36222 ft | 444 kts | 297° |
| 2026-05-05 00:46 | -29.87748 | 140.25450 | 36225 ft | 443 kts | 297° |
| 2026-05-05 00:47 | -29.84878 | 140.19132 | 36227 ft | 444 kts | 297° |
| 2026-05-05 00:47 | -29.81993 | 140.12788 | 36226 ft | 444 kts | 297° |
| 2026-05-05 00:48 | -29.79133 | 140.06511 | 36219 ft | 444 kts | 297° |
| 2026-05-05 00:48 | -29.76247 | 140.00186 | 36222 ft | 445 kts | 297° |
| 2026-05-05 00:49 | -29.73359 | 139.93867 | 36220 ft | 444 kts | 297° |
| 2026-05-05 00:49 | -29.70499 | 139.87620 | 36219 ft | 445 kts | 297° |
| 2026-05-05 00:50 | -29.67603 | 139.81306 | 36220 ft | 445 kts | 297° |
| 2026-05-05 00:50 | -29.64708 | 139.75005 | 36220 ft | 444 kts | 297° |
| 2026-05-05 00:51 | -29.61828 | 139.68745 | 36216 ft | 445 kts | 297° |
| 2026-05-05 00:51 | -29.58927 | 139.62450 | 36216 ft | 445 kts | 297° |
| 2026-05-05 00:52 | -29.56035 | 139.56186 | 36215 ft | 445 kts | 297° |
| 2026-05-05 00:52 | -29.53120 | 139.49880 | 36215 ft | 446 kts | 297° |
| 2026-05-05 00:53 | -29.50208 | 139.43591 | 36214 ft | 445 kts | 297° |
| 2026-05-05 00:53 | -29.47285 | 139.37289 | 36213 ft | 446 kts | 297° |
| 2026-05-05 00:54 | -29.44378 | 139.31032 | 36220 ft | 446 kts | 297° |
| 2026-05-05 00:54 | -29.41455 | 139.24748 | 36221 ft | 446 kts | 297° |
| 2026-05-05 00:55 | -29.38524 | 139.18459 | 36222 ft | 446 kts | 297° |
| 2026-05-05 00:55 | -29.35580 | 139.12152 | 36221 ft | 447 kts | 297° |
| 2026-05-05 00:56 | -29.32649 | 139.05884 | 36217 ft | 447 kts | 297° |
| 2026-05-05 00:56 | -29.29730 | 138.99649 | 36221 ft | 447 kts | 297° |
| 2026-05-05 00:57 | -29.26784 | 138.93367 | 36220 ft | 447 kts | 297° |
| 2026-05-05 00:57 | -29.23844 | 138.87108 | 36217 ft | 447 kts | 297° |
| 2026-05-05 00:58 | -29.20875 | 138.80795 | 36220 ft | 447 kts | 297° |
| 2026-05-05 00:58 | -29.17922 | 138.74527 | 36217 ft | 447 kts | 297° |
| 2026-05-05 00:59 | -29.14980 | 138.68294 | 36218 ft | 447 kts | 297° |
| 2026-05-05 00:59 | -29.12027 | 138.62045 | 36216 ft | 447 kts | 297° |
| 2026-05-05 01:00 | -29.09069 | 138.55797 | 36209 ft | 448 kts | 297° |
| 2026-05-05 01:00 | -29.06097 | 138.49530 | 36217 ft | 447 kts | 297° |
| 2026-05-05 01:01 | -29.03123 | 138.43266 | 36213 ft | 448 kts | 297° |
| 2026-05-05 01:01 | -29.00177 | 138.37073 | 36214 ft | 447 kts | 297° |
| 2026-05-05 01:02 | -28.97188 | 138.30797 | 36227 ft | 448 kts | 297° |
| 2026-05-05 01:02 | -28.94186 | 138.24504 | 36223 ft | 447 kts | 297° |
| 2026-05-05 01:03 | -28.91217 | 138.18288 | 36225 ft | 448 kts | 297° |
| 2026-05-05 01:03 | -28.88233 | 138.12053 | 36228 ft | 448 kts | 297° |
| 2026-05-05 01:04 | -28.85249 | 138.05827 | 36223 ft | 448 kts | 297° |
| 2026-05-05 01:04 | -28.80767 | 137.96495 | 36227 ft | 448 kts | 297° |
| 2026-05-05 01:05 | -28.77759 | 137.90242 | 36225 ft | 449 kts | 297° |
| 2026-05-05 01:05 | -28.74776 | 137.84050 | 36218 ft | 449 kts | 297° |
| 2026-05-05 01:06 | -28.71756 | 137.77792 | 36223 ft | 449 kts | 297° |
| 2026-05-05 01:06 | -28.68749 | 137.71571 | 36224 ft | 449 kts | 297° |
| 2026-05-05 01:07 | -28.65737 | 137.65349 | 36223 ft | 449 kts | 297° |
| 2026-05-05 01:07 | -28.62737 | 137.59160 | 36217 ft | 449 kts | 297° |
| 2026-05-05 01:08 | -28.59701 | 137.52908 | 36223 ft | 449 kts | 297° |
| 2026-05-05 01:08 | -28.56671 | 137.46677 | 36219 ft | 449 kts | 297° |
| 2026-05-05 01:09 | -28.53644 | 137.40460 | 36214 ft | 450 kts | 297° |
| 2026-05-05 01:09 | -28.50628 | 137.34277 | 36224 ft | 449 kts | 297° |
| 2026-05-05 01:10 | -28.47565 | 137.28006 | 36232 ft | 450 kts | 297° |
| 2026-05-05 01:10 | -28.44541 | 137.21823 | 36231 ft | 450 kts | 297° |
| 2026-05-05 01:11 | -28.41487 | 137.15590 | 36227 ft | 450 kts | 297° |
| 2026-05-05 01:11 | -28.38461 | 137.09422 | 36232 ft | 451 kts | 297° |
| 2026-05-05 01:12 | -28.35398 | 137.03191 | 36229 ft | 451 kts | 297° |
| 2026-05-05 01:12 | -28.32352 | 136.97000 | 36230 ft | 450 kts | 297° |
| 2026-05-05 01:13 | -28.29294 | 136.90796 | 36229 ft | 450 kts | 297° |
| 2026-05-05 01:13 | -28.26225 | 136.84581 | 36231 ft | 451 kts | 297° |
| 2026-05-05 01:14 | -28.23164 | 136.78386 | 36223 ft | 450 kts | 297° |
| 2026-05-05 01:14 | -28.20111 | 136.72231 | 36227 ft | 450 kts | 297° |
| 2026-05-05 01:15 | -28.17033 | 136.66045 | 36226 ft | 450 kts | 297° |
| 2026-05-05 01:15 | -28.13944 | 136.59847 | 36228 ft | 450 kts | 297° |
| 2026-05-05 01:16 | -28.10876 | 136.53699 | 36222 ft | 449 kts | 297° |
| 2026-05-05 01:16 | -28.07808 | 136.47559 | 36225 ft | 449 kts | 297° |
| 2026-05-05 01:17 | -28.04717 | 136.41382 | 36230 ft | 449 kts | 297° |
| 2026-05-05 01:17 | -28.01634 | 136.35233 | 36228 ft | 449 kts | 297° |
| 2026-05-05 01:18 | -27.98549 | 136.29085 | 36240 ft | 449 kts | 297° |
| 2026-05-05 01:18 | -27.95464 | 136.22949 | 36232 ft | 449 kts | 297° |
| 2026-05-05 01:19 | -27.92389 | 136.16838 | 36237 ft | 449 kts | 297° |
| 2026-05-05 01:19 | -27.89302 | 136.10716 | 36242 ft | 448 kts | 297° |
| 2026-05-05 01:20 | -27.86195 | 136.04561 | 36237 ft | 448 kts | 297° |
| 2026-05-05 01:20 | -27.83092 | 135.98424 | 36239 ft | 447 kts | 297° |
| 2026-05-05 01:21 | -27.80010 | 135.92335 | 36238 ft | 448 kts | 297° |
| 2026-05-05 01:21 | -27.76922 | 135.86246 | 36244 ft | 449 kts | 297° |
| 2026-05-05 01:22 | -27.73815 | 135.80125 | 36239 ft | 448 kts | 297° |
| 2026-05-05 01:22 | -27.70701 | 135.74002 | 36240 ft | 448 kts | 297° |
| 2026-05-05 01:23 | -27.67608 | 135.67928 | 36244 ft | 448 kts | 297° |
| 2026-05-05 01:23 | -27.64500 | 135.61833 | 36249 ft | 449 kts | 297° |
| 2026-05-05 01:24 | -27.61397 | 135.55756 | 36252 ft | 447 kts | 296° |
| 2026-05-05 01:24 | -27.58281 | 135.49663 | 36236 ft | 448 kts | 296° |
| 2026-05-05 01:25 | -27.55170 | 135.43588 | 36247 ft | 448 kts | 296° |
| 2026-05-05 01:25 | -27.52080 | 135.37499 | 36243 ft | 449 kts | 296° |
| 2026-05-05 01:26 | -27.48971 | 135.31372 | 36262 ft | 448 kts | 296° |
| 2026-05-05 01:26 | -27.45881 | 135.25293 | 36254 ft | 449 kts | 296° |
| 2026-05-05 01:27 | -27.42769 | 135.19183 | 36258 ft | 449 kts | 296° |
| 2026-05-05 01:27 | -27.39678 | 135.13121 | 36255 ft | 449 kts | 296° |
| 2026-05-05 01:28 | -27.36572 | 135.07040 | 36260 ft | 449 kts | 296° |
| 2026-05-05 01:28 | -27.33466 | 135.00967 | 36261 ft | 449 kts | 296° |
| 2026-05-05 01:29 | -27.30357 | 134.94896 | 36263 ft | 449 kts | 296° |
| 2026-05-05 01:29 | -27.27236 | 134.88812 | 36261 ft | 449 kts | 296° |
| 2026-05-05 01:30 | -27.24164 | 134.82831 | 36258 ft | 449 kts | 296° |
| 2026-05-05 01:30 | -27.21032 | 134.76741 | 36260 ft | 449 kts | 296° |
| 2026-05-05 01:31 | -27.17912 | 134.70685 | 36253 ft | 449 kts | 296° |
| 2026-05-05 01:31 | -27.14790 | 134.64632 | 36260 ft | 449 kts | 296° |
| 2026-05-05 01:32 | -27.11670 | 134.58591 | 36259 ft | 449 kts | 296° |
| 2026-05-05 01:32 | -27.08526 | 134.52512 | 36255 ft | 450 kts | 296° |
| 2026-05-05 01:33 | -27.05381 | 134.46440 | 36257 ft | 449 kts | 296° |
| 2026-05-05 01:33 | -27.02254 | 134.40410 | 36258 ft | 449 kts | 296° |
| 2026-05-05 01:34 | -26.99119 | 134.34374 | 36252 ft | 450 kts | 296° |
| 2026-05-05 01:34 | -26.95953 | 134.28285 | 36259 ft | 450 kts | 296° |
| 2026-05-05 01:35 | -26.92794 | 134.22220 | 36266 ft | 451 kts | 296° |
| 2026-05-05 01:35 | -26.89638 | 134.16168 | 36268 ft | 450 kts | 296° |
| 2026-05-05 01:36 | -26.86480 | 134.10121 | 36265 ft | 451 kts | 296° |
| 2026-05-05 01:36 | -26.83314 | 134.04068 | 36259 ft | 451 kts | 296° |
| 2026-05-05 01:37 | -26.80136 | 133.98000 | 36264 ft | 451 kts | 296° |
| 2026-05-05 01:37 | -26.76974 | 133.91971 | 36262 ft | 450 kts | 296° |
| 2026-05-05 01:38 | -26.73785 | 133.85896 | 36259 ft | 450 kts | 296° |
| 2026-05-05 01:38 | -26.70633 | 133.79901 | 36254 ft | 451 kts | 296° |
| 2026-05-05 01:39 | -26.67462 | 133.73880 | 36264 ft | 451 kts | 296° |
| 2026-05-05 01:39 | -26.64285 | 133.67854 | 36260 ft | 450 kts | 296° |
| 2026-05-05 01:40 | -26.61099 | 133.61819 | 36259 ft | 450 kts | 296° |
| 2026-05-05 01:40 | -26.57910 | 133.55788 | 36257 ft | 450 kts | 296° |
| 2026-05-05 01:41 | -26.54744 | 133.49809 | 36263 ft | 450 kts | 296° |
| 2026-05-05 01:41 | -26.51563 | 133.43806 | 36261 ft | 449 kts | 296° |
| 2026-05-05 01:42 | -26.48372 | 133.37797 | 36263 ft | 449 kts | 296° |
| 2026-05-05 01:42 | -26.45196 | 133.31821 | 36271 ft | 450 kts | 297° |
| 2026-05-05 01:43 | -26.41998 | 133.25813 | 36273 ft | 449 kts | 296° |
| 2026-05-05 01:43 | -26.38816 | 133.19841 | 36266 ft | 451 kts | 296° |
| 2026-05-05 01:44 | -26.35632 | 133.13876 | 36268 ft | 448 kts | 296° |
| 2026-05-05 01:44 | -26.32418 | 133.07861 | 36265 ft | 448 kts | 296° |
| 2026-05-05 01:45 | -26.29243 | 133.01929 | 36263 ft | 449 kts | 296° |
| 2026-05-05 01:45 | -26.26033 | 132.95937 | 36257 ft | 449 kts | 296° |
| 2026-05-05 01:46 | -26.22844 | 132.89992 | 36264 ft | 449 kts | 296° |
| 2026-05-05 01:46 | -26.19631 | 132.84012 | 36259 ft | 448 kts | 296° |
| 2026-05-05 01:47 | -26.16451 | 132.78102 | 36257 ft | 449 kts | 296° |
| 2026-05-05 01:47 | -26.13230 | 132.72124 | 36257 ft | 448 kts | 296° |
| 2026-05-05 01:48 | -26.10039 | 132.66208 | 36256 ft | 449 kts | 296° |
| 2026-05-05 01:48 | -26.06823 | 132.60254 | 36252 ft | 448 kts | 296° |
| 2026-05-05 01:49 | -26.03616 | 132.54324 | 36255 ft | 448 kts | 296° |
| 2026-05-05 01:49 | -26.00393 | 132.48373 | 36252 ft | 448 kts | 296° |
| 2026-05-05 01:50 | -25.97183 | 132.42453 | 36242 ft | 447 kts | 296° |
| 2026-05-05 01:50 | -25.93972 | 132.36540 | 36246 ft | 449 kts | 296° |
| 2026-05-05 01:51 | -25.90748 | 132.30611 | 36258 ft | 449 kts | 297° |
| 2026-05-05 01:51 | -25.87527 | 132.24695 | 36254 ft | 449 kts | 297° |
| 2026-05-05 01:52 | -25.84299 | 132.18771 | 36263 ft | 448 kts | 297° |
| 2026-05-05 01:52 | -25.81069 | 132.12852 | 36254 ft | 448 kts | 297° |
| 2026-05-05 01:53 | -25.77844 | 132.06952 | 36258 ft | 448 kts | 297° |
| 2026-05-05 01:53 | -25.74612 | 132.01044 | 36245 ft | 448 kts | 297° |
| 2026-05-05 01:54 | -25.71386 | 131.95158 | 36253 ft | 448 kts | 297° |
| 2026-05-05 01:54 | -25.68147 | 131.89253 | 36252 ft | 448 kts | 297° |
| 2026-05-05 01:55 | -25.64923 | 131.83383 | 36253 ft | 448 kts | 297° |
| 2026-05-05 01:55 | -25.61671 | 131.77470 | 36252 ft | 447 kts | 297° |
| 2026-05-05 01:56 | -25.58447 | 131.71616 | 36248 ft | 448 kts | 297° |
| 2026-05-05 01:56 | -25.55209 | 131.65744 | 36256 ft | 448 kts | 297° |
| 2026-05-05 01:57 | -25.51957 | 131.59854 | 36241 ft | 447 kts | 297° |
| 2026-05-05 01:57 | -25.48723 | 131.54004 | 36254 ft | 448 kts | 296° |
| 2026-05-05 01:58 | -25.45475 | 131.48134 | 36252 ft | 448 kts | 296° |
| 2026-05-05 01:58 | -25.42216 | 131.42253 | 36239 ft | 447 kts | 296° |
| 2026-05-05 01:59 | -25.38967 | 131.36398 | 36241 ft | 448 kts | 296° |
| 2026-05-05 01:59 | -25.35727 | 131.30566 | 36264 ft | 449 kts | 297° |
| 2026-05-05 02:00 | -25.32449 | 131.24674 | 36256 ft | 448 kts | 297° |
| 2026-05-05 02:00 | -25.29209 | 131.18855 | 36260 ft | 449 kts | 297° |
| 2026-05-05 02:01 | -25.25933 | 131.12981 | 36259 ft | 447 kts | 297° |
| 2026-05-05 02:01 | -25.22687 | 131.07167 | 36253 ft | 447 kts | 297° |
| 2026-05-05 02:02 | -25.19421 | 131.01326 | 36264 ft | 447 kts | 297° |
| 2026-05-05 02:02 | -25.15882 | 130.95659 | 36269 ft | 452 kts | 304° |
| 2026-05-05 02:03 | -25.11849 | 130.90324 | 36253 ft | 453 kts | 304° |
| 2026-05-05 02:03 | -25.07823 | 130.85022 | 36262 ft | 452 kts | 304° |
| 2026-05-05 02:04 | -25.03795 | 130.79721 | 36255 ft | 452 kts | 304° |
| 2026-05-05 02:04 | -24.99756 | 130.74412 | 36257 ft | 452 kts | 304° |
| 2026-05-05 02:05 | -24.95718 | 130.69110 | 36319 ft | 452 kts | 304° |
| 2026-05-05 02:05 | -24.93704 | 130.66467 | 36023 ft | 449 kts | 304° |
| 2026-05-05 02:05 | -24.91722 | 130.63870 | 36427 ft | 448 kts | 304° |
| 2026-05-05 02:06 | -24.89687 | 130.61200 | 36309 ft | 453 kts | 304° |
| 2026-05-05 02:06 | -24.87668 | 130.58557 | 36255 ft | 448 kts | 304° |
| 2026-05-05 02:06 | -24.83657 | 130.53305 | 36243 ft | 451 kts | 304° |
| 2026-05-05 02:07 | -24.79603 | 130.48007 | 36240 ft | 448 kts | 304° |
| 2026-05-05 02:07 | -24.75577 | 130.42749 | 36231 ft | 447 kts | 303° |
| 2026-05-05 02:08 | -24.71557 | 130.37505 | 36234 ft | 447 kts | 304° |
| 2026-05-05 02:08 | -24.67557 | 130.32292 | 36248 ft | 450 kts | 304° |
| 2026-05-05 02:09 | -24.63520 | 130.27039 | 36238 ft | 446 kts | 304° |
| 2026-05-05 02:09 | -24.59519 | 130.21835 | 36230 ft | 446 kts | 304° |
| 2026-05-05 02:10 | -24.55527 | 130.16652 | 36241 ft | 447 kts | 303° |
| 2026-05-05 02:10 | -24.51487 | 130.11409 | 36228 ft | 447 kts | 304° |
| 2026-05-05 02:11 | -24.47474 | 130.06209 | 36225 ft | 446 kts | 304° |
| 2026-05-05 02:11 | -24.43482 | 130.01039 | 36229 ft | 449 kts | 303° |
| 2026-05-05 02:12 | -24.37443 | 129.93234 | 36226 ft | 446 kts | 303° |
| 2026-05-05 02:13 | -24.33402 | 129.88016 | 36218 ft | 448 kts | 303° |
| 2026-05-05 02:13 | -24.29378 | 129.82828 | 36209 ft | 446 kts | 303° |
| 2026-05-05 02:14 | -24.25347 | 129.77632 | 36208 ft | 448 kts | 303° |
| 2026-05-05 02:14 | -24.21343 | 129.72481 | 36205 ft | 443 kts | 303° |
| 2026-05-05 02:15 | -24.17316 | 129.67303 | 36197 ft | 445 kts | 303° |
| 2026-05-05 02:15 | -24.13285 | 129.62128 | 36194 ft | 445 kts | 303° |
| 2026-05-05 02:16 | -24.09292 | 129.57005 | 36190 ft | 443 kts | 303° |
| 2026-05-05 02:16 | -24.05323 | 129.51918 | 36193 ft | 445 kts | 303° |
| 2026-05-05 02:17 | -24.01737 | 129.47327 | 36181 ft | 443 kts | 303° |
| 2026-05-05 02:17 | -23.97790 | 129.42279 | 36193 ft | 445 kts | 303° |
| 2026-05-05 02:18 | -23.93736 | 129.37102 | 36182 ft | 441 kts | 302° |
| 2026-05-05 02:18 | -23.89672 | 129.31911 | 36194 ft | 445 kts | 303° |
| 2026-05-05 02:19 | -23.85609 | 129.26732 | 36188 ft | 444 kts | 303° |
| 2026-05-05 02:19 | -23.81579 | 129.21600 | 36184 ft | 444 kts | 302° |
| 2026-05-05 02:20 | -23.77552 | 129.16476 | 36184 ft | 442 kts | 303° |
| 2026-05-05 02:20 | -23.73556 | 129.11397 | 36183 ft | 442 kts | 303° |
| 2026-05-05 02:21 | -23.69564 | 129.06331 | 36180 ft | 440 kts | 302° |
| 2026-05-05 02:21 | -23.65523 | 129.01201 | 36179 ft | 445 kts | 303° |
| 2026-05-05 02:22 | -23.61527 | 128.96141 | 36176 ft | 440 kts | 302° |
| 2026-05-05 02:22 | -23.57549 | 128.91104 | 36177 ft | 443 kts | 302° |
| 2026-05-05 02:23 | -23.53547 | 128.86046 | 36176 ft | 441 kts | 302° |
| 2026-05-05 02:23 | -23.49529 | 128.80969 | 36175 ft | 441 kts | 302° |
| 2026-05-05 02:24 | -23.45543 | 128.75938 | 36170 ft | 440 kts | 302° |
| 2026-05-05 02:24 | -23.41546 | 128.70901 | 36169 ft | 438 kts | 302° |
| 2026-05-05 02:25 | -23.37558 | 128.65878 | 36163 ft | 440 kts | 302° |
| 2026-05-05 02:25 | -23.33579 | 128.60873 | 36163 ft | 437 kts | 302° |
| 2026-05-05 02:26 | -23.29558 | 128.55818 | 36154 ft | 440 kts | 302° |
| 2026-05-05 02:26 | -23.25587 | 128.50835 | 36156 ft | 436 kts | 302° |
| 2026-05-05 02:27 | -23.21557 | 128.45776 | 36151 ft | 438 kts | 302° |
| 2026-05-05 02:27 | -23.17578 | 128.40799 | 36156 ft | 438 kts | 302° |
| 2026-05-05 02:28 | -23.13594 | 128.35820 | 36150 ft | 436 kts | 302° |
| 2026-05-05 02:28 | -23.09580 | 128.30804 | 36165 ft | 440 kts | 302° |
| 2026-05-05 02:29 | -23.05575 | 128.25813 | 36169 ft | 434 kts | 302° |
| 2026-05-05 02:29 | -23.01602 | 128.20857 | 36161 ft | 438 kts | 302° |
| 2026-05-05 02:30 | -22.97603 | 128.15878 | 36161 ft | 437 kts | 302° |
| 2026-05-05 02:30 | -22.93621 | 128.10927 | 36151 ft | 435 kts | 302° |
| 2026-05-05 02:31 | -22.89593 | 128.05920 | 36155 ft | 437 kts | 302° |
| 2026-05-05 02:31 | -22.85618 | 128.00987 | 36141 ft | 433 kts | 302° |
| 2026-05-05 02:32 | -22.81626 | 127.96032 | 36143 ft | 439 kts | 302° |
| 2026-05-05 02:32 | -22.77613 | 127.91065 | 36145 ft | 432 kts | 302° |
| 2026-05-05 02:33 | -22.73602 | 127.86095 | 36134 ft | 439 kts | 302° |
| 2026-05-05 02:33 | -22.69622 | 127.81177 | 36139 ft | 433 kts | 302° |
| 2026-05-05 02:34 | -22.65624 | 127.76234 | 36135 ft | 439 kts | 302° |
| 2026-05-05 02:34 | -22.61625 | 127.71300 | 36132 ft | 435 kts | 302° |
| 2026-05-05 02:35 | -22.57624 | 127.66369 | 36138 ft | 435 kts | 302° |
| 2026-05-05 02:35 | -22.53605 | 127.61417 | 36129 ft | 434 kts | 302° |
| 2026-05-05 02:36 | -22.49609 | 127.56499 | 36126 ft | 435 kts | 302° |
| 2026-05-05 02:36 | -22.45619 | 127.51592 | 36125 ft | 435 kts | 301° |
| 2026-05-05 02:37 | -22.41614 | 127.46672 | 36122 ft | 436 kts | 302° |
| 2026-05-05 02:37 | -22.37600 | 127.41747 | 36119 ft | 435 kts | 302° |
| 2026-05-05 02:38 | -22.33604 | 127.36847 | 36115 ft | 435 kts | 301° |
| 2026-05-05 02:38 | -22.29621 | 127.31969 | 36140 ft | 432 kts | 302° |
| 2026-05-05 02:39 | -22.25609 | 127.27058 | 36126 ft | 435 kts | 302° |
| 2026-05-05 02:39 | -22.21637 | 127.22205 | 36134 ft | 431 kts | 302° |
| 2026-05-05 02:40 | -22.17638 | 127.17317 | 36128 ft | 433 kts | 302° |
| 2026-05-05 02:40 | -22.13636 | 127.12434 | 36131 ft | 433 kts | 302° |
| 2026-05-05 02:41 | -22.09642 | 127.07563 | 36117 ft | 433 kts | 302° |
| 2026-05-05 02:41 | -22.05647 | 127.02698 | 36119 ft | 433 kts | 301° |
| 2026-05-05 02:42 | -22.01648 | 126.97831 | 36112 ft | 433 kts | 301° |
| 2026-05-05 02:42 | -21.97667 | 126.92991 | 36114 ft | 435 kts | 302° |
| 2026-05-05 02:43 | -21.93658 | 126.88123 | 36115 ft | 433 kts | 302° |
| 2026-05-05 02:43 | -21.89676 | 126.83288 | 36115 ft | 434 kts | 301° |
| 2026-05-05 02:44 | -21.85639 | 126.78394 | 36101 ft | 433 kts | 302° |
| 2026-05-05 02:44 | -21.81557 | 126.73447 | 36102 ft | 435 kts | 302° |
| 2026-05-05 02:45 | -21.77555 | 126.68606 | 36097 ft | 433 kts | 302° |
| 2026-05-05 02:45 | -21.73552 | 126.63764 | 36099 ft | 435 kts | 302° |
| 2026-05-05 02:46 | -21.69542 | 126.58921 | 36099 ft | 433 kts | 302° |
| 2026-05-05 02:46 | -21.65553 | 126.54107 | 36096 ft | 432 kts | 302° |
| 2026-05-05 02:47 | -21.61533 | 126.49258 | 36097 ft | 434 kts | 302° |
| 2026-05-05 02:47 | -21.57518 | 126.44422 | 36095 ft | 432 kts | 302° |
| 2026-05-05 02:48 | -21.53528 | 126.39619 | 36087 ft | 433 kts | 302° |
| 2026-05-05 02:48 | -21.49504 | 126.34779 | 36087 ft | 434 kts | 302° |
| 2026-05-05 02:49 | -21.45453 | 126.29912 | 36108 ft | 434 kts | 302° |
| 2026-05-05 02:49 | -21.41459 | 126.25119 | 36112 ft | 432 kts | 302° |
| 2026-05-05 02:50 | -21.37429 | 126.20283 | 36106 ft | 434 kts | 302° |
| 2026-05-05 02:50 | -21.33394 | 126.15449 | 36103 ft | 436 kts | 302° |
| 2026-05-05 02:51 | -21.29325 | 126.10577 | 36100 ft | 435 kts | 302° |
| 2026-05-05 02:51 | -21.25283 | 126.05743 | 36098 ft | 433 kts | 302° |
| 2026-05-05 02:52 | -21.21266 | 126.00942 | 36097 ft | 435 kts | 303° |
| 2026-05-05 02:52 | -21.17222 | 125.96114 | 36097 ft | 434 kts | 303° |
| 2026-05-05 02:53 | -21.13186 | 125.91298 | 36094 ft | 435 kts | 302° |
| 2026-05-05 02:53 | -21.09136 | 125.86472 | 36089 ft | 435 kts | 302° |
| 2026-05-05 02:54 | -21.05091 | 125.81654 | 36086 ft | 434 kts | 302° |
| 2026-05-05 02:54 | -21.01028 | 125.76819 | 36086 ft | 436 kts | 303° |
| 2026-05-05 02:55 | -20.97019 | 125.72053 | 36087 ft | 436 kts | 302° |
| 2026-05-05 02:55 | -20.92931 | 125.67198 | 36083 ft | 434 kts | 303° |
| 2026-05-05 02:56 | -20.88871 | 125.62367 | 36069 ft | 436 kts | 302° |
| 2026-05-05 02:56 | -20.84802 | 125.57516 | 36069 ft | 434 kts | 302° |
| 2026-05-05 02:57 | -20.80736 | 125.52673 | 36069 ft | 434 kts | 303° |
| 2026-05-05 02:57 | -20.76719 | 125.47891 | 36066 ft | 436 kts | 302° |
| 2026-05-05 02:58 | -20.72637 | 125.43039 | 36067 ft | 435 kts | 302° |
| 2026-05-05 02:58 | -20.68601 | 125.38245 | 36063 ft | 435 kts | 302° |
| 2026-05-05 02:59 | -20.64533 | 125.33420 | 36086 ft | 433 kts | 303° |
| 2026-05-05 02:59 | -20.60468 | 125.28597 | 36083 ft | 436 kts | 303° |
| 2026-05-05 03:00 | -20.56426 | 125.23810 | 36078 ft | 436 kts | 303° |
| 2026-05-05 03:00 | -20.52326 | 125.18957 | 36077 ft | 436 kts | 303° |
| 2026-05-05 03:01 | -20.48256 | 125.14143 | 36072 ft | 436 kts | 303° |
| 2026-05-05 03:01 | -20.44218 | 125.09372 | 36073 ft | 438 kts | 302° |
| 2026-05-05 03:02 | -20.40113 | 125.04526 | 36068 ft | 438 kts | 302° |
| 2026-05-05 03:02 | -20.36020 | 124.99699 | 36067 ft | 435 kts | 303° |
| 2026-05-05 03:03 | -20.31925 | 124.94872 | 36066 ft | 437 kts | 303° |
| 2026-05-05 03:03 | -20.27868 | 124.90096 | 36062 ft | 434 kts | 303° |
| 2026-05-05 03:04 | -20.23784 | 124.85291 | 36064 ft | 435 kts | 303° |
| 2026-05-05 03:04 | -20.19708 | 124.80499 | 36055 ft | 435 kts | 303° |
| 2026-05-05 03:05 | -20.15596 | 124.75668 | 36058 ft | 436 kts | 303° |
| 2026-05-05 03:05 | -20.11540 | 124.70909 | 36050 ft | 435 kts | 303° |
| 2026-05-05 03:06 | -20.07441 | 124.66101 | 36052 ft | 436 kts | 303° |
| 2026-05-05 03:06 | -20.03335 | 124.61292 | 36051 ft | 436 kts | 303° |
| 2026-05-05 03:07 | -19.99252 | 124.56512 | 36049 ft | 435 kts | 303° |
| 2026-05-05 03:07 | -19.95141 | 124.51703 | 36045 ft | 435 kts | 303° |
| 2026-05-05 03:08 | -19.91076 | 124.46952 | 36040 ft | 437 kts | 303° |
| 2026-05-05 03:08 | -19.86945 | 124.42128 | 36034 ft | 437 kts | 303° |
| 2026-05-05 03:09 | -19.82820 | 124.37314 | 36028 ft | 439 kts | 303° |
| 2026-05-05 03:09 | -19.78670 | 124.32477 | 36050 ft | 437 kts | 303° |
| 2026-05-05 03:10 | -19.74542 | 124.27666 | 36051 ft | 439 kts | 304° |
| 2026-05-05 03:10 | -19.70446 | 124.22902 | 36047 ft | 437 kts | 303° |
| 2026-05-05 03:11 | -19.66332 | 124.18117 | 36047 ft | 437 kts | 303° |
| 2026-05-05 03:11 | -19.62208 | 124.13325 | 36045 ft | 439 kts | 304° |
| 2026-05-05 03:12 | -19.58086 | 124.08540 | 36041 ft | 438 kts | 303° |
| 2026-05-05 03:12 | -19.53962 | 124.03754 | 36043 ft | 440 kts | 304° |
| 2026-05-05 03:13 | -19.49849 | 123.98988 | 36042 ft | 440 kts | 304° |
| 2026-05-05 03:13 | -19.45708 | 123.94193 | 36039 ft | 439 kts | 303° |
| 2026-05-05 03:14 | -19.41567 | 123.89400 | 36036 ft | 441 kts | 304° |
| 2026-05-05 03:14 | -19.37402 | 123.84584 | 36037 ft | 441 kts | 304° |
| 2026-05-05 03:15 | -19.33258 | 123.79797 | 36035 ft | 440 kts | 304° |
| 2026-05-05 03:15 | -19.29035 | 123.74921 | 36032 ft | 442 kts | 304° |
| 2026-05-05 03:16 | -19.24865 | 123.70113 | 36034 ft | 441 kts | 304° |
| 2026-05-05 03:16 | -19.20674 | 123.65282 | 36034 ft | 440 kts | 304° |
| 2026-05-05 03:17 | -19.16514 | 123.60491 | 36035 ft | 441 kts | 304° |
| 2026-05-05 03:17 | -19.12346 | 123.55696 | 36035 ft | 441 kts | 304° |
| 2026-05-05 03:18 | -19.08198 | 123.50927 | 36030 ft | 441 kts | 304° |
| 2026-05-05 03:18 | -19.03980 | 123.46081 | 36035 ft | 441 kts | 304° |
| 2026-05-05 03:19 | -18.97745 | 123.38925 | 36030 ft | 442 kts | 304° |
| 2026-05-05 03:19 | -18.93524 | 123.34085 | 36046 ft | 444 kts | 304° |
| 2026-05-05 03:20 | -18.89352 | 123.29352 | 36051 ft | 442 kts | 305° |
| 2026-05-05 03:20 | -18.85016 | 123.24471 | 36047 ft | 445 kts | 305° |
| 2026-05-05 03:21 | -18.80700 | 123.19617 | 36046 ft | 443 kts | 305° |
| 2026-05-05 03:21 | -18.76433 | 123.14819 | 36044 ft | 445 kts | 305° |
| 2026-05-05 03:22 | -18.72197 | 123.10059 | 36048 ft | 443 kts | 305° |
| 2026-05-05 03:22 | -18.67961 | 123.05302 | 36041 ft | 445 kts | 305° |
| 2026-05-05 03:23 | -18.63688 | 123.00509 | 36041 ft | 443 kts | 305° |
| 2026-05-05 03:23 | -18.59456 | 122.95763 | 36035 ft | 444 kts | 305° |
| 2026-05-05 03:24 | -18.55202 | 122.90997 | 36033 ft | 445 kts | 305° |
| 2026-05-05 03:24 | -18.50961 | 122.86249 | 36027 ft | 444 kts | 305° |
| 2026-05-05 03:25 | -18.46728 | 122.81514 | 36028 ft | 444 kts | 305° |
| 2026-05-05 03:25 | -18.42487 | 122.76773 | 36021 ft | 444 kts | 305° |
| 2026-05-05 03:26 | -18.38219 | 122.72006 | 36023 ft | 445 kts | 306° |
| 2026-05-05 03:26 | -18.33980 | 122.67275 | 36013 ft | 446 kts | 306° |
| 2026-05-05 03:27 | -18.29727 | 122.62532 | 36007 ft | 445 kts | 306° |
| 2026-05-05 03:27 | -18.25476 | 122.57796 | 36003 ft | 445 kts | 306° |
| 2026-05-05 03:28 | -18.21108 | 122.52932 | 36002 ft | 446 kts | 306° |
| 2026-05-05 03:28 | -18.16857 | 122.48202 | 35996 ft | 444 kts | 306° |
| 2026-05-05 03:29 | -18.12612 | 122.43483 | 35992 ft | 444 kts | 306° |
| 2026-05-05 03:29 | -18.08345 | 122.38741 | 35990 ft | 446 kts | 306° |
| 2026-05-05 03:30 | -18.04111 | 122.34041 | 36000 ft | 446 kts | 306° |
| 2026-05-05 03:30 | -17.99841 | 122.29305 | 36006 ft | 447 kts | 306° |
| 2026-05-05 03:31 | -17.95576 | 122.24519 | 35999 ft | 442 kts | 302° |
| 2026-05-05 03:31 | -17.92363 | 122.19114 | 36003 ft | 433 kts | 292° |
| 2026-05-05 03:32 | -17.89527 | 122.13545 | 35995 ft | 433 kts | 292° |
| 2026-05-05 03:32 | -17.86655 | 122.07913 | 35992 ft | 434 kts | 292° |
| 2026-05-05 03:33 | -17.83809 | 122.02343 | 35989 ft | 431 kts | 292° |
| 2026-05-05 03:33 | -17.80949 | 121.96751 | 35982 ft | 433 kts | 292° |
| 2026-05-05 03:34 | -17.78099 | 121.91186 | 35975 ft | 435 kts | 292° |
| 2026-05-05 03:34 | -17.75235 | 121.85598 | 35972 ft | 433 kts | 292° |
| 2026-05-05 03:35 | -17.72372 | 121.80018 | 35978 ft | 433 kts | 292° |
| 2026-05-05 03:35 | -17.69522 | 121.74468 | 35972 ft | 434 kts | 292° |
| 2026-05-05 03:36 | -17.66655 | 121.68888 | 35975 ft | 434 kts | 292° |
| 2026-05-05 03:36 | -17.63752 | 121.63245 | 35970 ft | 436 kts | 292° |
| 2026-05-05 03:37 | -17.60855 | 121.57617 | 35970 ft | 434 kts | 292° |
| 2026-05-05 03:37 | -17.57973 | 121.52024 | 35966 ft | 436 kts | 292° |
| 2026-05-05 03:38 | -17.55077 | 121.46408 | 35965 ft | 436 kts | 292° |
| 2026-05-05 03:38 | -17.52190 | 121.40817 | 35958 ft | 436 kts | 292° |
| 2026-05-05 03:39 | -17.49293 | 121.35210 | 35961 ft | 436 kts | 292° |
| 2026-05-05 03:39 | -17.46406 | 121.29626 | 35982 ft | 436 kts | 293° |
| 2026-05-05 03:40 | -17.43524 | 121.24058 | 35976 ft | 435 kts | 293° |
| 2026-05-05 03:40 | -17.40623 | 121.18456 | 35964 ft | 437 kts | 292° |
| 2026-05-05 03:41 | -17.37722 | 121.12860 | 35967 ft | 436 kts | 292° |
| 2026-05-05 03:41 | -17.34823 | 121.07274 | 35969 ft | 436 kts | 292° |
| 2026-05-05 03:42 | -17.31920 | 121.01681 | 35967 ft | 437 kts | 292° |
| 2026-05-05 03:42 | -17.29038 | 120.96137 | 35963 ft | 437 kts | 293° |
| 2026-05-05 03:43 | -17.26121 | 120.90530 | 35965 ft | 437 kts | 293° |
| 2026-05-05 03:43 | -17.23224 | 120.84965 | 35958 ft | 435 kts | 293° |
| 2026-05-05 03:44 | -17.20330 | 120.79411 | 35963 ft | 437 kts | 292° |
| 2026-05-05 03:44 | -17.17424 | 120.73838 | 35954 ft | 435 kts | 293° |
| 2026-05-05 03:45 | -17.14526 | 120.68285 | 35954 ft | 438 kts | 293° |
| 2026-05-05 03:45 | -17.11606 | 120.62696 | 35957 ft | 437 kts | 293° |
| 2026-05-05 03:46 | -17.08707 | 120.57152 | 35957 ft | 436 kts | 293° |
| 2026-05-05 03:46 | -17.05778 | 120.51553 | 35957 ft | 436 kts | 293° |
| 2026-05-05 03:47 | -17.02887 | 120.46032 | 35954 ft | 437 kts | 293° |
| 2026-05-05 03:47 | -16.99960 | 120.40448 | 35953 ft | 437 kts | 293° |
| 2026-05-05 03:48 | -16.97052 | 120.34905 | 35955 ft | 436 kts | 293° |
| 2026-05-05 03:48 | -16.94138 | 120.29353 | 35977 ft | 436 kts | 293° |
| 2026-05-05 03:49 | -16.91214 | 120.23788 | 35972 ft | 437 kts | 293° |
| 2026-05-05 03:49 | -16.88288 | 120.18224 | 35966 ft | 437 kts | 293° |
| 2026-05-05 03:50 | -16.85371 | 120.12680 | 35966 ft | 436 kts | 293° |
| 2026-05-05 03:50 | -16.82430 | 120.07097 | 35965 ft | 437 kts | 293° |
| 2026-05-05 03:51 | -16.79495 | 120.01530 | 35964 ft | 436 kts | 294° |
| 2026-05-05 03:51 | -16.76561 | 119.95968 | 35963 ft | 437 kts | 294° |
| 2026-05-05 03:52 | -16.73636 | 119.90427 | 35963 ft | 438 kts | 294° |
| 2026-05-05 03:52 | -16.70684 | 119.84841 | 35961 ft | 438 kts | 294° |
| 2026-05-05 03:53 | -16.67747 | 119.79287 | 35960 ft | 438 kts | 294° |
| 2026-05-05 03:53 | -16.64818 | 119.73754 | 35959 ft | 437 kts | 294° |
| 2026-05-05 03:54 | -16.61860 | 119.68170 | 35958 ft | 438 kts | 294° |
| 2026-05-05 03:54 | -16.58941 | 119.62665 | 35959 ft | 438 kts | 294° |
| 2026-05-05 03:55 | -16.55978 | 119.57078 | 35956 ft | 439 kts | 294° |
| 2026-05-05 03:55 | -16.53214 | 119.51874 | 35953 ft | 439 kts | 294° |
| 2026-05-05 03:56 | -16.50245 | 119.46287 | 35953 ft | 439 kts | 294° |
| 2026-05-05 03:56 | -16.47284 | 119.40718 | 35950 ft | 440 kts | 294° |
| 2026-05-05 03:57 | -16.44310 | 119.35130 | 35949 ft | 439 kts | 294° |
| 2026-05-05 03:57 | -16.41333 | 119.29542 | 35963 ft | 441 kts | 294° |
| 2026-05-05 03:58 | -16.38320 | 119.23891 | 35964 ft | 440 kts | 294° |
| 2026-05-05 03:58 | -16.35339 | 119.18304 | 35963 ft | 442 kts | 294° |
| 2026-05-05 03:59 | -16.32349 | 119.12705 | 35960 ft | 441 kts | 294° |
| 2026-05-05 03:59 | -16.29384 | 119.07155 | 35960 ft | 441 kts | 294° |
| 2026-05-05 04:00 | -16.26406 | 119.01589 | 35959 ft | 440 kts | 294° |
| 2026-05-05 04:00 | -16.23406 | 118.95982 | 35954 ft | 443 kts | 294° |
| 2026-05-05 04:01 | -16.20403 | 118.90376 | 35952 ft | 443 kts | 294° |
| 2026-05-05 04:01 | -16.17409 | 118.84792 | 35954 ft | 442 kts | 294° |
| 2026-05-05 04:02 | -16.14410 | 118.79200 | 35959 ft | 448 kts | 294° |
| 2026-05-05 04:02 | -16.11399 | 118.73596 | 36157 ft | 441 kts | 294° |
| 2026-05-05 04:03 | -16.09886 | 118.70778 | 36533 ft | 445 kts | 294° |
| 2026-05-05 04:03 | -16.08363 | 118.67944 | 37036 ft | 446 kts | 294° |
| 2026-05-05 04:03 | -16.06857 | 118.65144 | 37518 ft | 446 kts | 294° |
| 2026-05-05 04:03 | -16.05355 | 118.62353 | 37814 ft | 445 kts | 294° |
| 2026-05-05 04:04 | -16.03846 | 118.59548 | 37950 ft | 446 kts | 294° |
| 2026-05-05 04:04 | -16.02334 | 118.56740 | 37951 ft | 443 kts | 294° |
| 2026-05-05 04:04 | -15.99329 | 118.51160 | 37948 ft | 444 kts | 294° |
| 2026-05-05 04:05 | -15.96316 | 118.45570 | 37946 ft | 445 kts | 294° |
| 2026-05-05 04:05 | -15.93287 | 118.39957 | 37944 ft | 444 kts | 295° |
| 2026-05-05 04:06 | -15.90274 | 118.34376 | 37946 ft | 445 kts | 295° |
| 2026-05-05 04:06 | -15.87237 | 118.28754 | 37949 ft | 445 kts | 295° |
| 2026-05-05 04:07 | -15.84221 | 118.23176 | 37956 ft | 446 kts | 295° |
| 2026-05-05 04:07 | -15.81171 | 118.17542 | 37947 ft | 445 kts | 295° |
| 2026-05-05 04:08 | -15.78154 | 118.11970 | 37949 ft | 445 kts | 295° |
| 2026-05-05 04:08 | -15.75116 | 118.06365 | 37949 ft | 445 kts | 295° |
| 2026-05-05 04:09 | -15.72080 | 118.00767 | 37947 ft | 446 kts | 295° |
| 2026-05-05 04:09 | -15.69068 | 117.95219 | 37947 ft | 445 kts | 295° |
| 2026-05-05 04:10 | -15.66008 | 117.89587 | 37948 ft | 444 kts | 295° |
| 2026-05-05 04:10 | -15.62962 | 117.83983 | 37948 ft | 445 kts | 295° |
| 2026-05-05 04:11 | -15.59897 | 117.78349 | 37947 ft | 444 kts | 295° |
| 2026-05-05 04:11 | -15.56868 | 117.72787 | 37945 ft | 445 kts | 295° |
| 2026-05-05 04:12 | -15.53799 | 117.67155 | 37950 ft | 446 kts | 295° |
| 2026-05-05 04:12 | -15.50751 | 117.61565 | 37946 ft | 445 kts | 295° |
| 2026-05-05 04:13 | -15.47706 | 117.55985 | 37945 ft | 446 kts | 295° |
| 2026-05-05 04:13 | -15.44669 | 117.50426 | 37944 ft | 445 kts | 295° |
| 2026-05-05 04:14 | -15.41620 | 117.44846 | 37943 ft | 446 kts | 295° |
| 2026-05-05 04:14 | -15.38596 | 117.39317 | 37943 ft | 445 kts | 295° |
| 2026-05-05 04:15 | -15.35500 | 117.33661 | 37955 ft | 445 kts | 295° |
| 2026-05-05 04:15 | -15.32432 | 117.28061 | 37958 ft | 445 kts | 295° |
| 2026-05-05 04:16 | -15.29369 | 117.22474 | 37956 ft | 445 kts | 295° |
| 2026-05-05 04:16 | -15.26305 | 117.16888 | 37955 ft | 446 kts | 295° |
| 2026-05-05 04:17 | -15.23250 | 117.11323 | 37953 ft | 445 kts | 295° |
| 2026-05-05 04:17 | -15.20158 | 117.05695 | 37953 ft | 446 kts | 295° |
| 2026-05-05 04:18 | -15.17098 | 117.00128 | 37953 ft | 445 kts | 295° |
| 2026-05-05 04:18 | -15.14011 | 116.94513 | 37951 ft | 445 kts | 295° |
| 2026-05-05 04:19 | -15.10949 | 116.88945 | 37950 ft | 447 kts | 295° |
| 2026-05-05 04:19 | -15.07858 | 116.83332 | 37950 ft | 447 kts | 295° |
| 2026-05-05 04:20 | -15.04762 | 116.77711 | 37949 ft | 446 kts | 295° |
| 2026-05-05 04:20 | -15.01683 | 116.72127 | 37948 ft | 448 kts | 295° |
| 2026-05-05 04:21 | -14.98590 | 116.66522 | 37946 ft | 447 kts | 295° |
| 2026-05-05 04:21 | -14.95491 | 116.60907 | 37946 ft | 448 kts | 296° |
| 2026-05-05 04:22 | -14.92365 | 116.55251 | 37949 ft | 448 kts | 296° |
| 2026-05-05 04:22 | -14.89285 | 116.49680 | 37941 ft | 449 kts | 295° |
| 2026-05-05 04:23 | -14.86178 | 116.44066 | 37941 ft | 449 kts | 296° |
| 2026-05-05 04:23 | -14.83067 | 116.38446 | 37940 ft | 449 kts | 295° |
| 2026-05-05 04:24 | -14.79962 | 116.32845 | 37954 ft | 449 kts | 296° |
| 2026-05-05 04:25 | -14.75257 | 116.24361 | 37953 ft | 450 kts | 296° |
| 2026-05-05 04:25 | -14.72144 | 116.18755 | 37952 ft | 449 kts | 296° |
| 2026-05-05 04:26 | -14.69028 | 116.13145 | 37952 ft | 451 kts | 296° |
| 2026-05-05 04:26 | -14.65912 | 116.07542 | 37951 ft | 449 kts | 296° |
| 2026-05-05 04:27 | -14.62776 | 116.01903 | 37950 ft | 451 kts | 296° |
| 2026-05-05 04:27 | -14.59666 | 115.96318 | 37949 ft | 451 kts | 296° |
| 2026-05-05 04:28 | -14.56525 | 115.90679 | 37949 ft | 450 kts | 296° |
| 2026-05-05 04:28 | -14.53399 | 115.85074 | 37950 ft | 451 kts | 296° |
| 2026-05-05 04:29 | -14.50268 | 115.79462 | 37948 ft | 450 kts | 296° |
| 2026-05-05 04:29 | -14.47131 | 115.73843 | 37947 ft | 450 kts | 296° |
| 2026-05-05 04:30 | -14.44004 | 115.68247 | 37947 ft | 451 kts | 296° |
| 2026-05-05 04:30 | -14.40882 | 115.62663 | 37946 ft | 451 kts | 296° |
| 2026-05-05 04:31 | -14.37758 | 115.57079 | 37945 ft | 451 kts | 296° |
| 2026-05-05 04:31 | -14.34609 | 115.51455 | 37945 ft | 451 kts | 296° |
| 2026-05-05 04:32 | -14.31469 | 115.45852 | 37944 ft | 451 kts | 296° |
| 2026-05-05 04:32 | -14.28312 | 115.40221 | 37943 ft | 452 kts | 296° |
| 2026-05-05 04:33 | -14.25164 | 115.34611 | 37944 ft | 451 kts | 296° |
| 2026-05-05 04:33 | -14.22014 | 115.29001 | 37955 ft | 452 kts | 296° |
| 2026-05-05 04:34 | -14.18852 | 115.23372 | 37954 ft | 452 kts | 296° |
| 2026-05-05 04:34 | -14.15712 | 115.17787 | 37954 ft | 453 kts | 296° |
| 2026-05-05 04:35 | -14.12547 | 115.12163 | 37954 ft | 454 kts | 296° |
| 2026-05-05 04:35 | -14.09380 | 115.06539 | 37952 ft | 453 kts | 296° |
| 2026-05-05 04:36 | -14.06223 | 115.00938 | 37952 ft | 453 kts | 296° |
| 2026-05-05 04:36 | -14.03031 | 114.95276 | 37951 ft | 453 kts | 296° |
| 2026-05-05 04:37 | -13.99860 | 114.89657 | 37946 ft | 454 kts | 296° |
| 2026-05-05 04:37 | -13.96695 | 114.84052 | 37952 ft | 455 kts | 297° |
| 2026-05-05 04:38 | -13.93509 | 114.78413 | 37945 ft | 453 kts | 296° |
| 2026-05-05 04:38 | -13.90340 | 114.72810 | 37940 ft | 453 kts | 297° |
| 2026-05-05 04:39 | -13.87162 | 114.67192 | 37939 ft | 453 kts | 297° |
| 2026-05-05 04:39 | -13.83974 | 114.61562 | 37941 ft | 453 kts | 296° |
| 2026-05-05 04:40 | -13.80806 | 114.55970 | 37938 ft | 453 kts | 297° |
| 2026-05-05 04:40 | -13.77617 | 114.50346 | 37937 ft | 454 kts | 297° |
| 2026-05-05 04:41 | -13.74429 | 114.44727 | 37934 ft | 454 kts | 297° |
| 2026-05-05 04:41 | -13.71254 | 114.39136 | 37928 ft | 452 kts | 297° |
| 2026-05-05 04:42 | -13.68067 | 114.33525 | 37939 ft | 453 kts | 297° |
| 2026-05-05 04:42 | -13.64893 | 114.27943 | 37939 ft | 452 kts | 297° |
| 2026-05-05 04:43 | -13.61686 | 114.22304 | 37936 ft | 453 kts | 297° |
| 2026-05-05 04:43 | -13.58517 | 114.16737 | 37936 ft | 453 kts | 297° |
| 2026-05-05 04:44 | -13.55310 | 114.11108 | 37928 ft | 453 kts | 297° |
| 2026-05-05 04:44 | -13.52149 | 114.05562 | 37934 ft | 453 kts | 297° |
| 2026-05-05 04:45 | -13.48950 | 113.99953 | 37926 ft | 454 kts | 297° |
| 2026-05-05 04:45 | -13.45754 | 113.94354 | 37926 ft | 452 kts | 297° |
| 2026-05-05 04:46 | -13.42565 | 113.88770 | 37922 ft | 453 kts | 297° |
| 2026-05-05 04:46 | -13.39364 | 113.83169 | 37924 ft | 452 kts | 297° |
| 2026-05-05 04:47 | -13.36174 | 113.77590 | 37919 ft | 453 kts | 297° |
| 2026-05-05 04:47 | -13.32998 | 113.72041 | 37920 ft | 452 kts | 297° |
| 2026-05-05 04:48 | -13.29801 | 113.66458 | 37916 ft | 454 kts | 297° |
| 2026-05-05 04:48 | -13.26603 | 113.60876 | 37912 ft | 452 kts | 297° |
| 2026-05-05 04:49 | -13.23423 | 113.55331 | 37911 ft | 452 kts | 297° |
| 2026-05-05 04:49 | -13.20222 | 113.49751 | 37913 ft | 452 kts | 297° |
| 2026-05-05 04:50 | -13.17030 | 113.44190 | 37906 ft | 452 kts | 297° |
| 2026-05-05 04:50 | -13.13840 | 113.38638 | 37907 ft | 452 kts | 297° |
| 2026-05-05 04:51 | -13.10650 | 113.33087 | 37919 ft | 453 kts | 298° |
| 2026-05-05 04:51 | -13.07460 | 113.27541 | 37914 ft | 450 kts | 298° |
| 2026-05-05 04:52 | -13.04264 | 113.21987 | 37913 ft | 451 kts | 298° |
| 2026-05-05 04:52 | -13.01058 | 113.16421 | 37912 ft | 452 kts | 298° |
| 2026-05-05 04:53 | -12.97848 | 113.10851 | 37911 ft | 452 kts | 298° |
| 2026-05-05 04:53 | -12.94651 | 113.05307 | 37910 ft | 452 kts | 298° |
| 2026-05-05 04:54 | -12.91458 | 112.99773 | 37909 ft | 451 kts | 298° |
| 2026-05-05 04:54 | -12.88247 | 112.94211 | 37910 ft | 452 kts | 298° |
| 2026-05-05 04:55 | -12.85043 | 112.88663 | 37908 ft | 454 kts | 298° |
| 2026-05-05 04:55 | -12.81818 | 112.83086 | 37907 ft | 453 kts | 298° |
| 2026-05-05 04:56 | -12.78601 | 112.77523 | 37907 ft | 453 kts | 298° |
| 2026-05-05 04:56 | -12.75358 | 112.71920 | 37905 ft | 453 kts | 298° |
| 2026-05-05 04:57 | -12.72141 | 112.66364 | 37905 ft | 455 kts | 298° |
| 2026-05-05 04:57 | -12.68924 | 112.60813 | 37906 ft | 455 kts | 298° |
| 2026-05-05 04:58 | -12.65687 | 112.55231 | 37904 ft | 454 kts | 298° |
| 2026-05-05 04:58 | -12.62452 | 112.49655 | 37904 ft | 455 kts | 298° |
| 2026-05-05 04:59 | -12.59192 | 112.44040 | 37903 ft | 455 kts | 298° |
| 2026-05-05 04:59 | -12.55970 | 112.38492 | 37902 ft | 455 kts | 298° |
| 2026-05-05 05:00 | -12.52709 | 112.32882 | 37914 ft | 457 kts | 298° |
| 2026-05-05 05:00 | -12.49464 | 112.27303 | 37912 ft | 456 kts | 298° |
| 2026-05-05 05:01 | -12.46199 | 112.21693 | 37911 ft | 457 kts | 299° |
| 2026-05-05 05:01 | -12.42958 | 112.16128 | 37911 ft | 458 kts | 298° |
| 2026-05-05 05:02 | -12.39709 | 112.10551 | 37910 ft | 458 kts | 298° |
| 2026-05-05 05:02 | -12.36430 | 112.04927 | 37909 ft | 457 kts | 299° |
| 2026-05-05 05:03 | -12.33165 | 111.99329 | 37908 ft | 458 kts | 299° |
| 2026-05-05 05:03 | -12.29896 | 111.93729 | 37909 ft | 458 kts | 299° |
| 2026-05-05 05:04 | -12.26637 | 111.88151 | 37908 ft | 457 kts | 299° |
| 2026-05-05 05:04 | -12.23377 | 111.82571 | 37907 ft | 459 kts | 299° |
| 2026-05-05 05:05 | -12.20092 | 111.76955 | 37907 ft | 458 kts | 299° |
| 2026-05-05 05:05 | -12.16819 | 111.71359 | 37907 ft | 460 kts | 299° |
| 2026-05-05 05:06 | -12.13533 | 111.65747 | 37905 ft | 459 kts | 299° |
| 2026-05-05 05:06 | -12.10252 | 111.60146 | 37906 ft | 460 kts | 299° |
| 2026-05-05 05:07 | -12.06958 | 111.54526 | 37906 ft | 460 kts | 299° |
| 2026-05-05 05:07 | -12.03694 | 111.48961 | 37905 ft | 460 kts | 300° |
| 2026-05-05 05:08 | -12.00190 | 111.43478 | 37903 ft | 463 kts | 308° |
| 2026-05-05 05:08 | -11.95444 | 111.39006 | 37906 ft | 466 kts | 319° |
| 2026-05-05 05:09 | -11.90388 | 111.34857 | 37904 ft | 466 kts | 319° |
| 2026-05-05 05:09 | -11.85328 | 111.30722 | 37912 ft | 464 kts | 319° |
| 2026-05-05 05:10 | -11.80261 | 111.26589 | 37912 ft | 466 kts | 319° |
| 2026-05-05 05:10 | -11.75174 | 111.22446 | 37911 ft | 465 kts | 319° |
| 2026-05-05 05:11 | -11.70112 | 111.18327 | 37911 ft | 466 kts | 319° |
| 2026-05-05 05:11 | -11.65025 | 111.14190 | 37910 ft | 465 kts | 319° |
| 2026-05-05 05:12 | -11.59932 | 111.10050 | 37911 ft | 467 kts | 319° |
| 2026-05-05 05:12 | -11.54860 | 111.05930 | 37911 ft | 466 kts | 319° |
| 2026-05-05 05:13 | -11.49776 | 111.01803 | 37910 ft | 467 kts | 319° |
| 2026-05-05 05:13 | -11.44700 | 110.97684 | 37910 ft | 466 kts | 319° |
| 2026-05-05 05:14 | -11.39591 | 110.93539 | 37908 ft | 467 kts | 319° |
| 2026-05-05 05:14 | -11.34505 | 110.89416 | 37911 ft | 466 kts | 319° |
| 2026-05-05 05:15 | -11.29404 | 110.85282 | 37907 ft | 467 kts | 319° |
| 2026-05-05 05:15 | -11.24282 | 110.81133 | 37907 ft | 467 kts | 319° |
| 2026-05-05 05:16 | -11.19184 | 110.77007 | 37909 ft | 466 kts | 319° |
| 2026-05-05 05:16 | -11.14073 | 110.72871 | 37906 ft | 468 kts | 319° |
| 2026-05-05 05:17 | -11.08967 | 110.68741 | 37908 ft | 466 kts | 319° |
| 2026-05-05 05:17 | -11.03861 | 110.64613 | 37910 ft | 468 kts | 319° |
| 2026-05-05 05:18 | -10.98745 | 110.60478 | 37901 ft | 466 kts | 319° |
| 2026-05-05 05:18 | -10.93868 | 110.56538 | 37907 ft | 467 kts | 319° |
| 2026-05-05 05:19 | -10.88765 | 110.52419 | 37906 ft | 468 kts | 319° |
| 2026-05-05 05:19 | -10.83620 | 110.48267 | 37901 ft | 470 kts | 319° |
| 2026-05-05 05:20 | -10.78468 | 110.44111 | 37898 ft | 468 kts | 319° |
| 2026-05-05 05:20 | -10.73342 | 110.39978 | 37896 ft | 469 kts | 319° |
| 2026-05-05 05:21 | -10.68243 | 110.35868 | 37894 ft | 468 kts | 319° |
| 2026-05-05 05:21 | -10.63081 | 110.31709 | 37900 ft | 470 kts | 319° |
| 2026-05-05 05:22 | -10.57924 | 110.27557 | 37897 ft | 472 kts | 320° |
| 2026-05-05 05:22 | -10.52757 | 110.23398 | 37892 ft | 471 kts | 320° |
| 2026-05-05 05:23 | -10.47601 | 110.19250 | 37887 ft | 472 kts | 320° |
| 2026-05-05 05:23 | -10.42403 | 110.15070 | 37882 ft | 472 kts | 319° |
| 2026-05-05 05:24 | -10.37264 | 110.10940 | 37884 ft | 473 kts | 319° |
| 2026-05-05 05:24 | -10.32052 | 110.06752 | 37879 ft | 472 kts | 319° |
| 2026-05-05 05:25 | -10.26885 | 110.02602 | 37874 ft | 474 kts | 319° |
| 2026-05-05 05:25 | -10.21706 | 109.98444 | 37874 ft | 475 kts | 320° |
| 2026-05-05 05:26 | -10.16525 | 109.94287 | 37872 ft | 474 kts | 320° |
| 2026-05-05 05:26 | -10.11339 | 109.90128 | 37872 ft | 474 kts | 319° |
| 2026-05-05 05:27 | -10.06136 | 109.85957 | 37870 ft | 474 kts | 320° |
| 2026-05-05 05:27 | -9.98327 | 109.79699 | 37870 ft | 476 kts | 320° |
| 2026-05-05 05:28 | -9.93144 | 109.75548 | 37873 ft | 474 kts | 320° |
| 2026-05-05 05:28 | -9.87878 | 109.71332 | 37868 ft | 476 kts | 320° |
| 2026-05-05 05:29 | -9.82691 | 109.67181 | 37869 ft | 476 kts | 320° |
| 2026-05-05 05:29 | -9.77477 | 109.63010 | 37864 ft | 476 kts | 320° |
| 2026-05-05 05:30 | -9.72277 | 109.58852 | 37869 ft | 476 kts | 320° |
| 2026-05-05 05:30 | -9.67076 | 109.54696 | 37868 ft | 477 kts | 320° |
| 2026-05-05 05:31 | -9.61860 | 109.50528 | 37867 ft | 477 kts | 320° |
| 2026-05-05 05:31 | -9.56644 | 109.46362 | 37867 ft | 477 kts | 320° |
| 2026-05-05 05:32 | -9.51421 | 109.42194 | 37866 ft | 476 kts | 320° |
| 2026-05-05 05:32 | -9.46179 | 109.38010 | 37866 ft | 477 kts | 320° |
| 2026-05-05 05:33 | -9.40976 | 109.33861 | 37871 ft | 477 kts | 320° |
| 2026-05-05 05:33 | -9.35715 | 109.29666 | 37870 ft | 478 kts | 320° |
| 2026-05-05 05:34 | -9.30458 | 109.25476 | 37869 ft | 479 kts | 321° |
| 2026-05-05 05:34 | -9.25239 | 109.21318 | 37870 ft | 479 kts | 321° |
| 2026-05-05 05:35 | -9.19994 | 109.17141 | 37868 ft | 478 kts | 321° |
| 2026-05-05 05:35 | -9.14716 | 109.12940 | 37869 ft | 480 kts | 321° |
| 2026-05-05 05:36 | -9.09481 | 109.08773 | 37868 ft | 480 kts | 321° |
| 2026-05-05 05:36 | -9.04195 | 109.04569 | 37868 ft | 480 kts | 321° |
| 2026-05-05 05:37 | -8.98946 | 109.00394 | 37867 ft | 481 kts | 321° |
| 2026-05-05 05:37 | -8.93658 | 108.96192 | 37867 ft | 481 kts | 321° |
| 2026-05-05 05:38 | -8.88371 | 108.91991 | 37868 ft | 480 kts | 321° |
| 2026-05-05 05:38 | -8.83277 | 108.87945 | 37867 ft | 480 kts | 321° |
| 2026-05-05 05:39 | -8.77985 | 108.83743 | 37867 ft | 481 kts | 321° |
| 2026-05-05 05:39 | -8.72692 | 108.79542 | 37867 ft | 479 kts | 321° |
| 2026-05-05 05:40 | -8.67428 | 108.75365 | 37868 ft | 480 kts | 321° |
| 2026-05-05 05:40 | -8.62172 | 108.71197 | 37866 ft | 481 kts | 321° |
| 2026-05-05 05:41 | -8.56890 | 108.67010 | 37866 ft | 479 kts | 321° |
| 2026-05-05 05:41 | -8.51594 | 108.62813 | 37869 ft | 481 kts | 321° |
| 2026-05-05 05:42 | -8.46314 | 108.58630 | 37866 ft | 481 kts | 322° |
| 2026-05-05 05:42 | -8.41032 | 108.54446 | 37867 ft | 482 kts | 322° |
| 2026-05-05 05:43 | -8.35763 | 108.50275 | 37866 ft | 480 kts | 322° |
| 2026-05-05 05:43 | -8.30441 | 108.46064 | 37867 ft | 480 kts | 322° |
| 2026-05-05 05:44 | -8.25150 | 108.41878 | 37866 ft | 482 kts | 322° |
| 2026-05-05 05:44 | -8.19868 | 108.37701 | 37866 ft | 482 kts | 322° |
| 2026-05-05 05:45 | -8.14531 | 108.33482 | 37866 ft | 484 kts | 322° |
| 2026-05-05 05:45 | -8.09230 | 108.29293 | 37866 ft | 484 kts | 322° |
| 2026-05-05 05:46 | -8.03889 | 108.25092 | 37867 ft | 487 kts | 323° |
| 2026-05-05 05:46 | -7.98471 | 108.20901 | 37866 ft | 486 kts | 323° |
| 2026-05-05 05:47 | -7.93076 | 108.16727 | 37868 ft | 488 kts | 323° |
| 2026-05-05 05:47 | -7.87625 | 108.12508 | 37871 ft | 488 kts | 323° |
| 2026-05-05 05:48 | -7.82120 | 108.08249 | 37876 ft | 488 kts | 323° |
| 2026-05-05 05:48 | -7.76679 | 108.04039 | 37879 ft | 488 kts | 323° |
| 2026-05-05 05:49 | -7.71257 | 107.99846 | 37888 ft | 488 kts | 323° |
| 2026-05-05 05:49 | -7.65799 | 107.95626 | 37910 ft | 489 kts | 323° |
| 2026-05-05 05:50 | -7.60344 | 107.91409 | 37936 ft | 489 kts | 323° |
| 2026-05-05 05:50 | -7.54889 | 107.87195 | 37956 ft | 489 kts | 323° |
| 2026-05-05 05:51 | -7.49423 | 107.82973 | 37984 ft | 489 kts | 323° |
| 2026-05-05 05:51 | -7.43957 | 107.78751 | 38005 ft | 489 kts | 323° |
| 2026-05-05 05:52 | -7.38536 | 107.74567 | 38029 ft | 489 kts | 323° |
| 2026-05-05 05:52 | -7.33056 | 107.70338 | 38039 ft | 489 kts | 323° |
| 2026-05-05 05:53 | -7.27532 | 107.66076 | 38058 ft | 489 kts | 323° |
| 2026-05-05 05:53 | -7.21994 | 107.61806 | 38069 ft | 489 kts | 323° |
| 2026-05-05 05:54 | -7.16242 | 107.57371 | 38052 ft | 490 kts | 323° |
| 2026-05-05 05:54 | -7.10389 | 107.52859 | 38040 ft | 489 kts | 323° |
| 2026-05-05 05:55 | -7.04697 | 107.48469 | 38031 ft | 490 kts | 323° |
| 2026-05-05 05:55 | -6.98975 | 107.44046 | 38022 ft | 490 kts | 323° |
| 2026-05-05 05:56 | -6.93261 | 107.39632 | 38015 ft | 490 kts | 323° |
| 2026-05-05 05:56 | -6.87602 | 107.35262 | 38009 ft | 490 kts | 323° |
| 2026-05-05 05:57 | -6.81954 | 107.30901 | 37977 ft | 490 kts | 323° |
| 2026-05-05 05:57 | -6.76336 | 107.26566 | 37946 ft | 490 kts | 323° |
| 2026-05-05 05:58 | -6.70728 | 107.22239 | 37935 ft | 490 kts | 323° |
| 2026-05-05 05:58 | -6.65178 | 107.17959 | 37949 ft | 490 kts | 323° |
| 2026-05-05 05:59 | -6.59553 | 107.13622 | 37949 ft | 490 kts | 323° |
| 2026-05-05 05:59 | -6.53859 | 107.09232 | 37929 ft | 488 kts | 323° |
| 2026-05-05 06:00 | -6.48150 | 107.04833 | 37916 ft | 489 kts | 323° |
| 2026-05-05 06:00 | -6.42536 | 107.00509 | 37906 ft | 488 kts | 323° |
| 2026-05-05 06:01 | -6.37030 | 106.96268 | 37893 ft | 486 kts | 323° |
| 2026-05-05 06:01 | -6.31567 | 106.91834 | 37888 ft | 488 kts | 315° |
| 2026-05-05 06:02 | -6.27464 | 106.86325 | 37880 ft | 491 kts | 298° |
| 2026-05-05 06:02 | -6.25114 | 106.79820 | 37885 ft | 493 kts | 284° |
| 2026-05-05 06:03 | -6.23511 | 106.73051 | 37878 ft | 493 kts | 284° |
| 2026-05-05 06:03 | -6.21919 | 106.66283 | 37876 ft | 493 kts | 283° |
| 2026-05-05 06:04 | -6.20113 | 106.59704 | 37875 ft | 492 kts | 292° |
| 2026-05-05 06:04 | -6.16461 | 106.53500 | 37867 ft | 491 kts | 310° |
| 2026-05-05 06:05 | -6.11183 | 106.48769 | 37867 ft | 489 kts | 328° |
| 2026-05-05 06:05 | -6.05232 | 106.45274 | 37869 ft | 488 kts | 331° |
| 2026-05-05 06:06 | -5.99294 | 106.41878 | 37869 ft | 489 kts | 331° |
| 2026-05-05 06:06 | -5.93401 | 106.38512 | 37868 ft | 489 kts | 331° |
| 2026-05-05 06:07 | -5.87500 | 106.35144 | 37869 ft | 489 kts | 330° |
| 2026-05-05 06:07 | -5.81582 | 106.31768 | 37865 ft | 489 kts | 331° |
| 2026-05-05 06:08 | -5.75721 | 106.28426 | 37865 ft | 489 kts | 331° |
| 2026-05-05 06:08 | -5.69808 | 106.25056 | 37861 ft | 490 kts | 331° |
| 2026-05-05 06:09 | -5.63891 | 106.21684 | 37862 ft | 490 kts | 331° |
| 2026-05-05 06:09 | -5.58022 | 106.18341 | 37860 ft | 490 kts | 331° |
| 2026-05-05 06:10 | -5.52112 | 106.14975 | 37857 ft | 490 kts | 331° |
| 2026-05-05 06:10 | -5.46310 | 106.11672 | 37856 ft | 490 kts | 331° |
| 2026-05-05 06:11 | -5.40430 | 106.08324 | 37853 ft | 491 kts | 331° |
| 2026-05-05 06:11 | -5.34557 | 106.04983 | 37854 ft | 491 kts | 331° |
| 2026-05-05 06:12 | -5.28707 | 106.01654 | 37852 ft | 491 kts | 331° |
| 2026-05-05 06:12 | -5.22818 | 105.98304 | 37853 ft | 491 kts | 331° |
| 2026-05-05 06:13 | -5.16956 | 105.94971 | 37851 ft | 491 kts | 331° |
| 2026-05-05 06:13 | -5.11050 | 105.91612 | 37854 ft | 491 kts | 331° |
| 2026-05-05 06:14 | -5.05234 | 105.88296 | 37854 ft | 491 kts | 331° |
| 2026-05-05 06:14 | -4.99359 | 105.84949 | 37857 ft | 491 kts | 331° |
| 2026-05-05 06:15 | -4.93494 | 105.81608 | 37854 ft | 490 kts | 331° |
| 2026-05-05 06:15 | -4.87631 | 105.78268 | 37855 ft | 490 kts | 331° |
| 2026-05-05 06:16 | -4.81768 | 105.74931 | 37854 ft | 490 kts | 331° |
| 2026-05-05 06:16 | -4.75946 | 105.71616 | 37856 ft | 489 kts | 331° |
| 2026-05-05 06:17 | -4.70084 | 105.68279 | 37853 ft | 489 kts | 331° |
| 2026-05-05 06:17 | -4.64277 | 105.64975 | 37856 ft | 489 kts | 331° |
| 2026-05-05 06:18 | -4.58478 | 105.61675 | 37858 ft | 489 kts | 331° |
| 2026-05-05 06:18 | -4.52734 | 105.58408 | 37856 ft | 488 kts | 331° |
| 2026-05-05 06:19 | -4.46976 | 105.55133 | 37860 ft | 488 kts | 331° |
| 2026-05-05 06:19 | -4.41196 | 105.51847 | 37856 ft | 488 kts | 331° |
| 2026-05-05 06:20 | -4.35484 | 105.48599 | 37859 ft | 488 kts | 331° |
| 2026-05-05 06:20 | -4.29760 | 105.45346 | 37861 ft | 488 kts | 331° |
| 2026-05-05 06:21 | -4.24148 | 105.42156 | 37858 ft | 488 kts | 331° |
| 2026-05-05 06:21 | -4.18477 | 105.38934 | 37862 ft | 488 kts | 331° |
| 2026-05-05 06:22 | -4.12715 | 105.35661 | 37863 ft | 488 kts | 331° |
| 2026-05-05 06:22 | -4.06956 | 105.32389 | 37864 ft | 488 kts | 331° |
| 2026-05-05 06:23 | -4.01156 | 105.29095 | 37858 ft | 488 kts | 331° |
| 2026-05-05 06:23 | -3.95384 | 105.25817 | 37867 ft | 487 kts | 331° |
| 2026-05-05 06:24 | -3.89559 | 105.22516 | 37860 ft | 488 kts | 332° |
| 2026-05-05 06:24 | -3.83791 | 105.19269 | 37867 ft | 487 kts | 332° |
| 2026-05-05 06:25 | -3.77985 | 105.16001 | 37864 ft | 487 kts | 332° |
| 2026-05-05 06:25 | -3.72146 | 105.12714 | 37871 ft | 487 kts | 332° |
| 2026-05-05 06:26 | -3.66338 | 105.09446 | 37865 ft | 488 kts | 331° |
| 2026-05-05 06:26 | -3.60575 | 105.06203 | 37869 ft | 487 kts | 332° |
| 2026-05-05 06:27 | -3.52013 | 105.01386 | 37873 ft | 487 kts | 331° |
| 2026-05-05 06:28 | -3.46259 | 104.98148 | 37869 ft | 487 kts | 331° |
| 2026-05-05 06:28 | -3.40514 | 104.94916 | 37869 ft | 487 kts | 332° |
| 2026-05-05 06:29 | -3.34882 | 104.91749 | 37870 ft | 487 kts | 332° |
| 2026-05-05 06:29 | -3.29296 | 104.88607 | 37871 ft | 487 kts | 331° |
| 2026-05-05 06:30 | -3.23711 | 104.85467 | 37869 ft | 487 kts | 331° |
| 2026-05-05 06:30 | -3.18071 | 104.82296 | 37871 ft | 487 kts | 332° |
| 2026-05-05 06:31 | -3.12411 | 104.79114 | 37869 ft | 488 kts | 331° |
| 2026-05-05 06:31 | -3.06751 | 104.75932 | 37870 ft | 487 kts | 331° |
| 2026-05-05 06:32 | -3.00890 | 104.72639 | 37867 ft | 487 kts | 331° |
| 2026-05-05 06:32 | -2.95059 | 104.69362 | 37867 ft | 488 kts | 331° |
| 2026-05-05 06:33 | -2.89211 | 104.66201 | 37863 ft | 486 kts | 337° |
| 2026-05-05 06:33 | -2.82876 | 104.64376 | 37872 ft | 485 kts | 349° |
| 2026-05-05 06:34 | -2.76324 | 104.63131 | 37866 ft | 485 kts | 350° |
| 2026-05-05 06:34 | -2.70540 | 104.62040 | 37865 ft | 485 kts | 350° |
| 2026-05-05 06:35 | -2.64067 | 104.60817 | 37866 ft | 485 kts | 350° |
| 2026-05-05 06:35 | -2.57577 | 104.59591 | 37864 ft | 485 kts | 350° |
| 2026-05-05 06:36 | -2.50779 | 104.58307 | 37864 ft | 485 kts | 350° |
| 2026-05-05 06:36 | -2.44138 | 104.57052 | 37864 ft | 485 kts | 350° |
| 2026-05-05 06:37 | -2.37422 | 104.55783 | 37865 ft | 484 kts | 350° |
| 2026-05-05 06:37 | -2.30950 | 104.54561 | 37861 ft | 486 kts | 349° |
| 2026-05-05 06:38 | -2.24393 | 104.53322 | 37862 ft | 485 kts | 350° |
| 2026-05-05 06:38 | -2.17868 | 104.52090 | 37861 ft | 485 kts | 349° |
| 2026-05-05 06:39 | -2.11416 | 104.50871 | 37859 ft | 485 kts | 349° |
| 2026-05-05 06:39 | -2.04791 | 104.49619 | 37861 ft | 485 kts | 349° |
| 2026-05-05 06:40 | -1.98307 | 104.48395 | 37859 ft | 485 kts | 349° |
| 2026-05-05 06:40 | -1.91846 | 104.47175 | 37857 ft | 485 kts | 349° |
| 2026-05-05 06:41 | -1.85482 | 104.45973 | 37861 ft | 485 kts | 349° |
| 2026-05-05 06:41 | -1.79093 | 104.44767 | 37858 ft | 485 kts | 350° |
| 2026-05-05 06:42 | -1.72635 | 104.43548 | 37861 ft | 485 kts | 350° |
| 2026-05-05 06:42 | -1.66169 | 104.42327 | 37860 ft | 485 kts | 350° |
| 2026-05-05 06:43 | -1.59666 | 104.41100 | 37860 ft | 485 kts | 350° |
| 2026-05-05 06:43 | -1.53113 | 104.39863 | 37860 ft | 485 kts | 350° |
| 2026-05-05 06:44 | -1.46500 | 104.38615 | 37860 ft | 486 kts | 350° |
| 2026-05-05 06:44 | -1.39950 | 104.37379 | 37863 ft | 485 kts | 350° |
| 2026-05-05 06:45 | -1.33385 | 104.36140 | 37862 ft | 485 kts | 350° |
| 2026-05-05 06:45 | -1.27009 | 104.34937 | 37862 ft | 486 kts | 350° |
| 2026-05-05 06:46 | -1.20758 | 104.33757 | 37862 ft | 485 kts | 350° |
| 2026-05-05 06:46 | -1.14525 | 104.32581 | 37861 ft | 486 kts | 350° |
| 2026-05-05 06:47 | -1.08260 | 104.31399 | 37859 ft | 486 kts | 350° |
| 2026-05-05 06:47 | -1.02007 | 104.30219 | 37861 ft | 486 kts | 350° |
| 2026-05-05 06:48 | -0.95623 | 104.29015 | 37860 ft | 486 kts | 350° |
| 2026-05-05 06:48 | -0.89245 | 104.27811 | 37862 ft | 486 kts | 350° |
| 2026-05-05 06:49 | -0.82857 | 104.26607 | 37859 ft | 486 kts | 350° |
| 2026-05-05 06:49 | -0.76536 | 104.25414 | 37860 ft | 486 kts | 350° |
| 2026-05-05 06:50 | -0.70178 | 104.24215 | 37859 ft | 486 kts | 350° |
| 2026-05-05 06:50 | -0.63854 | 104.23022 | 37854 ft | 487 kts | 350° |
| 2026-05-05 06:51 | -0.57495 | 104.21822 | 37857 ft | 486 kts | 350° |
| 2026-05-05 06:51 | -0.51118 | 104.20576 | 37853 ft | 487 kts | 349° |
| 2026-05-05 06:52 | -0.44785 | 104.19315 | 37856 ft | 487 kts | 350° |
| 2026-05-05 06:52 | -0.38379 | 104.18040 | 37854 ft | 487 kts | 350° |
| 2026-05-05 06:53 | -0.31975 | 104.16767 | 37853 ft | 487 kts | 350° |
| 2026-05-05 06:53 | -0.25500 | 104.15481 | 37852 ft | 487 kts | 350° |
| 2026-05-05 06:54 | -0.19176 | 104.14225 | 37667 ft | 476 kts | 350° |
| 2026-05-05 06:54 | -0.16177 | 104.13629 | 36567 ft | 475 kts | 349° |
| 2026-05-05 06:54 | -0.13166 | 104.13032 | 34915 ft | 484 kts | 349° |
| 2026-05-05 06:54 | -0.10016 | 104.12408 | 33018 ft | 495 kts | 349° |
| 2026-05-05 06:55 | -0.06891 | 104.11787 | 31148 ft | 507 kts | 349° |
| 2026-05-05 06:55 | -0.03678 | 104.11150 | 29419 ft | 514 kts | 350° |
| 2026-05-05 06:55 | -0.00449 | 104.10509 | 28384 ft | 513 kts | 350° |
| 2026-05-05 06:55 | 0.02777 | 104.09868 | 27868 ft | 506 kts | 350° |
| 2026-05-05 06:56 | 0.05996 | 104.09229 | 27374 ft | 499 kts | 350° |
| 2026-05-05 06:56 | 0.09159 | 104.08600 | 26809 ft | 494 kts | 350° |
| 2026-05-05 06:56 | 0.12294 | 104.07978 | 26225 ft | 490 kts | 351° |
| 2026-05-05 06:56 | 0.15346 | 104.07372 | 25637 ft | 485 kts | 351° |
| 2026-05-05 06:57 | 0.18400 | 104.06766 | 25045 ft | 481 kts | 351° |
| 2026-05-05 06:57 | 0.21442 | 104.06162 | 24454 ft | 477 kts | 351° |
| 2026-05-05 06:57 | 0.24413 | 104.05572 | 23856 ft | 473 kts | 351° |
| 2026-05-05 06:57 | 0.27352 | 104.04988 | 23275 ft | 466 kts | 351° |
| 2026-05-05 06:58 | 0.30263 | 104.04411 | 22708 ft | 460 kts | 351° |
| 2026-05-05 06:58 | 0.33408 | 104.03788 | 22091 ft | 453 kts | 351° |
| 2026-05-05 06:58 | 0.36312 | 104.03213 | 21631 ft | 441 kts | 351° |
| 2026-05-05 06:58 | 0.39032 | 104.02673 | 20947 ft | 430 kts | 351° |
| 2026-05-05 06:59 | 0.41964 | 104.02092 | 20030 ft | 423 kts | 351° |
| 2026-05-05 06:59 | 0.44737 | 104.01543 | 19085 ft | 418 kts | 351° |
| 2026-05-05 06:59 | 0.47329 | 104.01031 | 18201 ft | 413 kts | 351° |
| 2026-05-05 06:59 | 0.49932 | 104.00515 | 17319 ft | 408 kts | 351° |
| 2026-05-05 07:00 | 0.52447 | 104.00017 | 16455 ft | 403 kts | 351° |
| 2026-05-05 07:00 | 0.55073 | 103.99497 | 15543 ft | 398 kts | 351° |
| 2026-05-05 07:00 | 0.57560 | 103.99004 | 14647 ft | 394 kts | 350° |
| 2026-05-05 07:00 | 0.60028 | 103.98515 | 13821 ft | 387 kts | 350° |
| 2026-05-05 07:01 | 0.62416 | 103.98040 | 13327 ft | 372 kts | 350° |
| 2026-05-05 07:01 | 0.64741 | 103.97577 | 12998 ft | 355 kts | 350° |
| 2026-05-05 07:01 | 0.66949 | 103.97138 | 12749 ft | 336 kts | 350° |
| 2026-05-05 07:01 | 0.69084 | 103.96714 | 12552 ft | 318 kts | 350° |
| 2026-05-05 07:02 | 0.71063 | 103.96321 | 12384 ft | 302 kts | 350° |
| 2026-05-05 07:02 | 0.72959 | 103.95945 | 11996 ft | 296 kts | 350° |